<?xml version="1.0" encoding="UTF-8" standalone="no" ?>
<gpx xmlns="http://www.topografix.com/GPX/1/1" xmlns:xsi="http://www.w3.org/2001/XMLSchema-instance" xsi:schemaLocation="http://www.topografix.com/GPX/1/1 http://www.topografix.com/GPX/1/1/gpx.xsd" version="1.1" creator="VisuGPX - https://www.visugpx.com">
  <metadata>
    <name>RIEUX VOLVESTRE  PR Cathédrale Village Gaulois</name>
    <desc><![CDATA[Il s'agit du tracé du PR Cathédrale de Rieux Volvestre - Village Gaulois.
On démarrera du parking près du kiosque et du stade de Rieux Volvestre. 
Circuit balisé ( PR12) avec pancartes régulières et balises jaunes. Le retour est commun avec le GR861.

[url=https://swt-rando.blogspot.com/2018/05/rieux-volv-pr-cathedrale-village-gaulois.html]voir rando[/url]]]></desc>
  </metadata>
  <trk>
    <name><![CDATA[Rieux village gaulois]]></name>
    <trkseg>
      <trkpt lat="43.25744" lon="1.19638">
        <ele>227.98</ele>
        <time>2018-05-20T13:36:57Z</time>
      </trkpt>
      <trkpt lat="43.25744" lon="1.19638">
        <ele>227.96</ele>
        <time>2018-05-20T13:36:58Z</time>
      </trkpt>
      <trkpt lat="43.25743" lon="1.1963">
        <ele>228.05</ele>
        <time>2018-05-20T13:37:24Z</time>
      </trkpt>
      <trkpt lat="43.25734" lon="1.19619">
        <ele>227.76</ele>
        <time>2018-05-20T13:37:39Z</time>
      </trkpt>
      <trkpt lat="43.25725" lon="1.19608">
        <ele>227.79</ele>
        <time>2018-05-20T13:37:56Z</time>
      </trkpt>
      <trkpt lat="43.25725" lon="1.19604">
        <ele>227.79</ele>
        <time>2018-05-20T13:37:59Z</time>
      </trkpt>
      <trkpt lat="43.25727" lon="1.19577">
        <ele>227.02</ele>
        <time>2018-05-20T13:38:15Z</time>
      </trkpt>
      <trkpt lat="43.25732" lon="1.19571">
        <ele>226.86</ele>
        <time>2018-05-20T13:38:25Z</time>
      </trkpt>
      <trkpt lat="43.25734" lon="1.1957">
        <ele>226.8</ele>
        <time>2018-05-20T13:38:29Z</time>
      </trkpt>
      <trkpt lat="43.25737" lon="1.19561">
        <ele>226.76</ele>
        <time>2018-05-20T13:38:35Z</time>
      </trkpt>
      <trkpt lat="43.25737" lon="1.19549">
        <ele>226.89</ele>
        <time>2018-05-20T13:38:43Z</time>
      </trkpt>
      <trkpt lat="43.25739" lon="1.19547">
        <ele>226.92</ele>
        <time>2018-05-20T13:38:45Z</time>
      </trkpt>
      <trkpt lat="43.25742" lon="1.19543">
        <ele>227.05</ele>
        <time>2018-05-20T13:38:50Z</time>
      </trkpt>
      <trkpt lat="43.25744" lon="1.19535">
        <ele>227.14</ele>
        <time>2018-05-20T13:38:56Z</time>
      </trkpt>
      <trkpt lat="43.25748" lon="1.19515">
        <ele>227.24</ele>
        <time>2018-05-20T13:39:08Z</time>
      </trkpt>
      <trkpt lat="43.25757" lon="1.19491">
        <ele>227.25</ele>
        <time>2018-05-20T13:39:23Z</time>
      </trkpt>
      <trkpt lat="43.25762" lon="1.19476">
        <ele>226.79</ele>
        <time>2018-05-20T13:39:38Z</time>
      </trkpt>
      <trkpt lat="43.25763" lon="1.19475">
        <ele>226.7</ele>
        <time>2018-05-20T13:39:40Z</time>
      </trkpt>
      <trkpt lat="43.25767" lon="1.19476">
        <ele>226.6</ele>
        <time>2018-05-20T13:39:43Z</time>
      </trkpt>
      <trkpt lat="43.25768" lon="1.19465">
        <ele>226.45</ele>
        <time>2018-05-20T13:39:53Z</time>
      </trkpt>
      <trkpt lat="43.25772" lon="1.19458">
        <ele>226.2</ele>
        <time>2018-05-20T13:40:01Z</time>
      </trkpt>
      <trkpt lat="43.25782" lon="1.19458">
        <ele>225.94</ele>
        <time>2018-05-20T13:40:13Z</time>
      </trkpt>
      <trkpt lat="43.25794" lon="1.19462">
        <ele>225.89</ele>
        <time>2018-05-20T13:40:24Z</time>
      </trkpt>
      <trkpt lat="43.25806" lon="1.19466">
        <ele>225.72</ele>
        <time>2018-05-20T13:40:34Z</time>
      </trkpt>
      <trkpt lat="43.25813" lon="1.19458">
        <ele>225</ele>
        <time>2018-05-20T13:40:46Z</time>
      </trkpt>
      <trkpt lat="43.25814" lon="1.19457">
        <ele>224.91</ele>
        <time>2018-05-20T13:40:47Z</time>
      </trkpt>
      <trkpt lat="43.25818" lon="1.19432">
        <ele>223.67</ele>
        <time>2018-05-20T13:41:01Z</time>
      </trkpt>
      <trkpt lat="43.25818" lon="1.19428">
        <ele>223.64</ele>
        <time>2018-05-20T13:41:04Z</time>
      </trkpt>
      <trkpt lat="43.2582" lon="1.19415">
        <ele>223.62</ele>
        <time>2018-05-20T13:41:12Z</time>
      </trkpt>
      <trkpt lat="43.25821" lon="1.19406">
        <ele>223.64</ele>
        <time>2018-05-20T13:41:18Z</time>
      </trkpt>
      <trkpt lat="43.25822" lon="1.19379">
        <ele>223.92</ele>
        <time>2018-05-20T13:41:36Z</time>
      </trkpt>
      <trkpt lat="43.25822" lon="1.19374">
        <ele>224.01</ele>
        <time>2018-05-20T13:41:40Z</time>
      </trkpt>
      <trkpt lat="43.25822" lon="1.19358">
        <ele>224.38</ele>
        <time>2018-05-20T13:41:53Z</time>
      </trkpt>
      <trkpt lat="43.25822" lon="1.19348">
        <ele>224.52</ele>
        <time>2018-05-20T13:42:00Z</time>
      </trkpt>
      <trkpt lat="43.2582" lon="1.19323">
        <ele>224.7</ele>
        <time>2018-05-20T13:42:17Z</time>
      </trkpt>
      <trkpt lat="43.25819" lon="1.19294">
        <ele>224.97</ele>
        <time>2018-05-20T13:42:40Z</time>
      </trkpt>
      <trkpt lat="43.25814" lon="1.1927">
        <ele>225.45</ele>
        <time>2018-05-20T13:43:01Z</time>
      </trkpt>
      <trkpt lat="43.25814" lon="1.19255">
        <ele>225.55</ele>
        <time>2018-05-20T13:43:05Z</time>
      </trkpt>
      <trkpt lat="43.25814" lon="1.19235">
        <ele>225.66</ele>
        <time>2018-05-20T13:43:10Z</time>
      </trkpt>
      <trkpt lat="43.25814" lon="1.1921">
        <ele>226.04</ele>
        <time>2018-05-20T13:43:28Z</time>
      </trkpt>
      <trkpt lat="43.25814" lon="1.19208">
        <ele>226.04</ele>
        <time>2018-05-20T13:43:29Z</time>
      </trkpt>
      <trkpt lat="43.25816" lon="1.19193">
        <ele>226.14</ele>
        <time>2018-05-20T13:43:38Z</time>
      </trkpt>
      <trkpt lat="43.2582" lon="1.19171">
        <ele>226.31</ele>
        <time>2018-05-20T13:43:51Z</time>
      </trkpt>
      <trkpt lat="43.25825" lon="1.19163">
        <ele>226.4</ele>
        <time>2018-05-20T13:43:57Z</time>
      </trkpt>
      <trkpt lat="43.25826" lon="1.19156">
        <ele>226.57</ele>
        <time>2018-05-20T13:44:02Z</time>
      </trkpt>
      <trkpt lat="43.25826" lon="1.1915">
        <ele>226.67</ele>
        <time>2018-05-20T13:44:05Z</time>
      </trkpt>
      <trkpt lat="43.25829" lon="1.19146">
        <ele>226.87</ele>
        <time>2018-05-20T13:44:09Z</time>
      </trkpt>
      <trkpt lat="43.2583" lon="1.19143">
        <ele>226.93</ele>
        <time>2018-05-20T13:44:11Z</time>
      </trkpt>
      <trkpt lat="43.25831" lon="1.19137">
        <ele>227.06</ele>
        <time>2018-05-20T13:44:14Z</time>
      </trkpt>
      <trkpt lat="43.25836" lon="1.1912">
        <ele>227.76</ele>
        <time>2018-05-20T13:44:26Z</time>
      </trkpt>
      <trkpt lat="43.25836" lon="1.19095">
        <ele>228.35</ele>
        <time>2018-05-20T13:44:42Z</time>
      </trkpt>
      <trkpt lat="43.25836" lon="1.19063">
        <ele>229.36</ele>
        <time>2018-05-20T13:45:02Z</time>
      </trkpt>
      <trkpt lat="43.25837" lon="1.19047">
        <ele>229.97</ele>
        <time>2018-05-20T13:45:13Z</time>
      </trkpt>
      <trkpt lat="43.25829" lon="1.19015">
        <ele>230.46</ele>
        <time>2018-05-20T13:45:35Z</time>
      </trkpt>
      <trkpt lat="43.25825" lon="1.19009">
        <ele>230.79</ele>
        <time>2018-05-20T13:45:40Z</time>
      </trkpt>
      <trkpt lat="43.25806" lon="1.18976">
        <ele>231.77</ele>
        <time>2018-05-20T13:46:06Z</time>
      </trkpt>
      <trkpt lat="43.25803" lon="1.1897">
        <ele>232.01</ele>
        <time>2018-05-20T13:46:10Z</time>
      </trkpt>
      <trkpt lat="43.25796" lon="1.18949">
        <ele>232.92</ele>
        <time>2018-05-20T13:46:26Z</time>
      </trkpt>
      <trkpt lat="43.25792" lon="1.18926">
        <ele>234.2</ele>
        <time>2018-05-20T13:46:43Z</time>
      </trkpt>
      <trkpt lat="43.2579" lon="1.18922">
        <ele>234.24</ele>
        <time>2018-05-20T13:46:45Z</time>
      </trkpt>
      <trkpt lat="43.25788" lon="1.18903">
        <ele>234.97</ele>
        <time>2018-05-20T13:47:01Z</time>
      </trkpt>
      <trkpt lat="43.25784" lon="1.18883">
        <ele>235.53</ele>
        <time>2018-05-20T13:47:16Z</time>
      </trkpt>
      <trkpt lat="43.25783" lon="1.18875">
        <ele>235.64</ele>
        <time>2018-05-20T13:47:19Z</time>
      </trkpt>
      <trkpt lat="43.25781" lon="1.18869">
        <ele>235.73</ele>
        <time>2018-05-20T13:47:22Z</time>
      </trkpt>
      <trkpt lat="43.25781" lon="1.18856">
        <ele>235.95</ele>
        <time>2018-05-20T13:47:37Z</time>
      </trkpt>
      <trkpt lat="43.25781" lon="1.18851">
        <ele>236.02</ele>
        <time>2018-05-20T13:47:42Z</time>
      </trkpt>
      <trkpt lat="43.2579" lon="1.18833">
        <ele>236.15</ele>
        <time>2018-05-20T13:47:55Z</time>
      </trkpt>
      <trkpt lat="43.25806" lon="1.18828">
        <ele>236.26</ele>
        <time>2018-05-20T13:48:08Z</time>
      </trkpt>
      <trkpt lat="43.25809" lon="1.18827">
        <ele>236.26</ele>
        <time>2018-05-20T13:48:11Z</time>
      </trkpt>
      <trkpt lat="43.25817" lon="1.18828">
        <ele>236.24</ele>
        <time>2018-05-20T13:48:17Z</time>
      </trkpt>
      <trkpt lat="43.25821" lon="1.18827">
        <ele>236.24</ele>
        <time>2018-05-20T13:48:21Z</time>
      </trkpt>
      <trkpt lat="43.25833" lon="1.18824">
        <ele>236.23</ele>
        <time>2018-05-20T13:48:31Z</time>
      </trkpt>
      <trkpt lat="43.25857" lon="1.18827">
        <ele>237.07</ele>
        <time>2018-05-20T13:48:53Z</time>
      </trkpt>
      <trkpt lat="43.25876" lon="1.18828">
        <ele>237.63</ele>
        <time>2018-05-20T13:49:09Z</time>
      </trkpt>
      <trkpt lat="43.25895" lon="1.18845">
        <ele>237.72</ele>
        <time>2018-05-20T13:49:30Z</time>
      </trkpt>
      <trkpt lat="43.25908" lon="1.18824">
        <ele>237.99</ele>
        <time>2018-05-20T13:49:49Z</time>
      </trkpt>
      <trkpt lat="43.25908" lon="1.18812">
        <ele>237.97</ele>
        <time>2018-05-20T13:50:02Z</time>
      </trkpt>
      <trkpt lat="43.25911" lon="1.18807">
        <ele>238.09</ele>
        <time>2018-05-20T13:50:06Z</time>
      </trkpt>
      <trkpt lat="43.25917" lon="1.18785">
        <ele>238.13</ele>
        <time>2018-05-20T13:50:20Z</time>
      </trkpt>
      <trkpt lat="43.2592" lon="1.18765">
        <ele>238.28</ele>
        <time>2018-05-20T13:50:33Z</time>
      </trkpt>
      <trkpt lat="43.25925" lon="1.18736">
        <ele>238.14</ele>
        <time>2018-05-20T13:50:49Z</time>
      </trkpt>
      <trkpt lat="43.25926" lon="1.18729">
        <ele>238.13</ele>
        <time>2018-05-20T13:50:53Z</time>
      </trkpt>
      <trkpt lat="43.25928" lon="1.18722">
        <ele>238.19</ele>
        <time>2018-05-20T13:50:57Z</time>
      </trkpt>
      <trkpt lat="43.25936" lon="1.18696">
        <ele>238.8</ele>
        <time>2018-05-20T13:51:14Z</time>
      </trkpt>
      <trkpt lat="43.25936" lon="1.18695">
        <ele>238.85</ele>
        <time>2018-05-20T13:51:15Z</time>
      </trkpt>
      <trkpt lat="43.25937" lon="1.18671">
        <ele>239.43</ele>
        <time>2018-05-20T13:51:29Z</time>
      </trkpt>
      <trkpt lat="43.25937" lon="1.18656">
        <ele>239.83</ele>
        <time>2018-05-20T13:51:39Z</time>
      </trkpt>
      <trkpt lat="43.25933" lon="1.18634">
        <ele>240.4</ele>
        <time>2018-05-20T13:51:53Z</time>
      </trkpt>
      <trkpt lat="43.25932" lon="1.18631">
        <ele>240.58</ele>
        <time>2018-05-20T13:51:55Z</time>
      </trkpt>
      <trkpt lat="43.25929" lon="1.18613">
        <ele>240.82</ele>
        <time>2018-05-20T13:52:07Z</time>
      </trkpt>
      <trkpt lat="43.2593" lon="1.18609">
        <ele>240.88</ele>
        <time>2018-05-20T13:52:10Z</time>
      </trkpt>
      <trkpt lat="43.25931" lon="1.18589">
        <ele>241.01</ele>
        <time>2018-05-20T13:52:23Z</time>
      </trkpt>
      <trkpt lat="43.25932" lon="1.18586">
        <ele>241.09</ele>
        <time>2018-05-20T13:52:25Z</time>
      </trkpt>
      <trkpt lat="43.25932" lon="1.18576">
        <ele>241.23</ele>
        <time>2018-05-20T13:52:31Z</time>
      </trkpt>
      <trkpt lat="43.25935" lon="1.18557">
        <ele>241.33</ele>
        <time>2018-05-20T13:52:44Z</time>
      </trkpt>
      <trkpt lat="43.25937" lon="1.1854">
        <ele>241.31</ele>
        <time>2018-05-20T13:52:55Z</time>
      </trkpt>
      <trkpt lat="43.25937" lon="1.18534">
        <ele>241.31</ele>
        <time>2018-05-20T13:52:59Z</time>
      </trkpt>
      <trkpt lat="43.25938" lon="1.18517">
        <ele>241.67</ele>
        <time>2018-05-20T13:53:10Z</time>
      </trkpt>
      <trkpt lat="43.25939" lon="1.18511">
        <ele>241.74</ele>
        <time>2018-05-20T13:53:14Z</time>
      </trkpt>
      <trkpt lat="43.25938" lon="1.18493">
        <ele>241.83</ele>
        <time>2018-05-20T13:53:25Z</time>
      </trkpt>
      <trkpt lat="43.25938" lon="1.18488">
        <ele>241.83</ele>
        <time>2018-05-20T13:53:28Z</time>
      </trkpt>
      <trkpt lat="43.2594" lon="1.18462">
        <ele>242.21</ele>
        <time>2018-05-20T13:53:47Z</time>
      </trkpt>
      <trkpt lat="43.25943" lon="1.18439">
        <ele>242.43</ele>
        <time>2018-05-20T13:54:02Z</time>
      </trkpt>
      <trkpt lat="43.25946" lon="1.18423">
        <ele>242.35</ele>
        <time>2018-05-20T13:54:11Z</time>
      </trkpt>
      <trkpt lat="43.25947" lon="1.18414">
        <ele>242.25</ele>
        <time>2018-05-20T13:54:16Z</time>
      </trkpt>
      <trkpt lat="43.25944" lon="1.18394">
        <ele>242.62</ele>
        <time>2018-05-20T13:54:26Z</time>
      </trkpt>
      <trkpt lat="43.25942" lon="1.18387">
        <ele>242.69</ele>
        <time>2018-05-20T13:54:31Z</time>
      </trkpt>
      <trkpt lat="43.25942" lon="1.18381">
        <ele>242.84</ele>
        <time>2018-05-20T13:54:36Z</time>
      </trkpt>
      <trkpt lat="43.25938" lon="1.18355">
        <ele>242.99</ele>
        <time>2018-05-20T13:54:53Z</time>
      </trkpt>
      <trkpt lat="43.25936" lon="1.18344">
        <ele>243.1</ele>
        <time>2018-05-20T13:55:07Z</time>
      </trkpt>
      <trkpt lat="43.25939" lon="1.18316">
        <ele>243.19</ele>
        <time>2018-05-20T13:55:22Z</time>
      </trkpt>
      <trkpt lat="43.25942" lon="1.18304">
        <ele>243.37</ele>
        <time>2018-05-20T13:55:31Z</time>
      </trkpt>
      <trkpt lat="43.25944" lon="1.18283">
        <ele>243.65</ele>
        <time>2018-05-20T13:55:44Z</time>
      </trkpt>
      <trkpt lat="43.25944" lon="1.1828">
        <ele>243.7</ele>
        <time>2018-05-20T13:55:46Z</time>
      </trkpt>
      <trkpt lat="43.25946" lon="1.18261">
        <ele>244.06</ele>
        <time>2018-05-20T13:55:59Z</time>
      </trkpt>
      <trkpt lat="43.25946" lon="1.18259">
        <ele>244.08</ele>
        <time>2018-05-20T13:56:00Z</time>
      </trkpt>
      <trkpt lat="43.25947" lon="1.18249">
        <ele>244.2</ele>
        <time>2018-05-20T13:56:06Z</time>
      </trkpt>
      <trkpt lat="43.25952" lon="1.18228">
        <ele>244.28</ele>
        <time>2018-05-20T13:56:18Z</time>
      </trkpt>
      <trkpt lat="43.25954" lon="1.1822">
        <ele>244.38</ele>
        <time>2018-05-20T13:56:22Z</time>
      </trkpt>
      <trkpt lat="43.25964" lon="1.18189">
        <ele>244.46</ele>
        <time>2018-05-20T13:56:42Z</time>
      </trkpt>
      <trkpt lat="43.25976" lon="1.18173">
        <ele>244.78</ele>
        <time>2018-05-20T13:56:56Z</time>
      </trkpt>
      <trkpt lat="43.2598" lon="1.18159">
        <ele>244.91</ele>
        <time>2018-05-20T13:57:04Z</time>
      </trkpt>
      <trkpt lat="43.25982" lon="1.1815">
        <ele>245.09</ele>
        <time>2018-05-20T13:57:10Z</time>
      </trkpt>
      <trkpt lat="43.25991" lon="1.18126">
        <ele>245.43</ele>
        <time>2018-05-20T13:57:27Z</time>
      </trkpt>
      <trkpt lat="43.25992" lon="1.18117">
        <ele>245.53</ele>
        <time>2018-05-20T13:57:31Z</time>
      </trkpt>
      <trkpt lat="43.25997" lon="1.18108">
        <ele>245.69</ele>
        <time>2018-05-20T13:57:39Z</time>
      </trkpt>
      <trkpt lat="43.26005" lon="1.18085">
        <ele>246.1</ele>
        <time>2018-05-20T13:57:54Z</time>
      </trkpt>
      <trkpt lat="43.2601" lon="1.18075">
        <ele>246.13</ele>
        <time>2018-05-20T13:58:02Z</time>
      </trkpt>
      <trkpt lat="43.26015" lon="1.18066">
        <ele>246.22</ele>
        <time>2018-05-20T13:58:10Z</time>
      </trkpt>
      <trkpt lat="43.26019" lon="1.18059">
        <ele>246.44</ele>
        <time>2018-05-20T13:58:16Z</time>
      </trkpt>
      <trkpt lat="43.26028" lon="1.18042">
        <ele>246.75</ele>
        <time>2018-05-20T13:58:29Z</time>
      </trkpt>
      <trkpt lat="43.2603" lon="1.18034">
        <ele>246.94</ele>
        <time>2018-05-20T13:58:34Z</time>
      </trkpt>
      <trkpt lat="43.26031" lon="1.18031">
        <ele>247.07</ele>
        <time>2018-05-20T13:58:36Z</time>
      </trkpt>
      <trkpt lat="43.2604" lon="1.18013">
        <ele>247.31</ele>
        <time>2018-05-20T13:58:49Z</time>
      </trkpt>
      <trkpt lat="43.26041" lon="1.18005">
        <ele>247.45</ele>
        <time>2018-05-20T13:58:53Z</time>
      </trkpt>
      <trkpt lat="43.2605" lon="1.17995">
        <ele>247.72</ele>
        <time>2018-05-20T13:59:03Z</time>
      </trkpt>
      <trkpt lat="43.26053" lon="1.17992">
        <ele>247.74</ele>
        <time>2018-05-20T13:59:06Z</time>
      </trkpt>
      <trkpt lat="43.26061" lon="1.17974">
        <ele>247.87</ele>
        <time>2018-05-20T13:59:19Z</time>
      </trkpt>
      <trkpt lat="43.26061" lon="1.17971">
        <ele>247.9</ele>
        <time>2018-05-20T13:59:21Z</time>
      </trkpt>
      <trkpt lat="43.2607" lon="1.17953">
        <ele>248.24</ele>
        <time>2018-05-20T13:59:34Z</time>
      </trkpt>
      <trkpt lat="43.26073" lon="1.17948">
        <ele>248.37</ele>
        <time>2018-05-20T13:59:38Z</time>
      </trkpt>
      <trkpt lat="43.26076" lon="1.17939">
        <ele>248.59</ele>
        <time>2018-05-20T13:59:44Z</time>
      </trkpt>
      <trkpt lat="43.2608" lon="1.17933">
        <ele>248.77</ele>
        <time>2018-05-20T13:59:49Z</time>
      </trkpt>
      <trkpt lat="43.26085" lon="1.17925">
        <ele>249.08</ele>
        <time>2018-05-20T13:59:56Z</time>
      </trkpt>
      <trkpt lat="43.26092" lon="1.17909">
        <ele>249.6</ele>
        <time>2018-05-20T14:00:07Z</time>
      </trkpt>
      <trkpt lat="43.26094" lon="1.17898">
        <ele>249.87</ele>
        <time>2018-05-20T14:00:15Z</time>
      </trkpt>
      <trkpt lat="43.26097" lon="1.17891">
        <ele>249.98</ele>
        <time>2018-05-20T14:00:21Z</time>
      </trkpt>
      <trkpt lat="43.26103" lon="1.17881">
        <ele>250.21</ele>
        <time>2018-05-20T14:00:31Z</time>
      </trkpt>
      <trkpt lat="43.26115" lon="1.17863">
        <ele>250.61</ele>
        <time>2018-05-20T14:00:45Z</time>
      </trkpt>
      <trkpt lat="43.26123" lon="1.17841">
        <ele>251.26</ele>
        <time>2018-05-20T14:01:00Z</time>
      </trkpt>
      <trkpt lat="43.26127" lon="1.1782">
        <ele>251.35</ele>
        <time>2018-05-20T14:01:15Z</time>
      </trkpt>
      <trkpt lat="43.2613" lon="1.17804">
        <ele>251.72</ele>
        <time>2018-05-20T14:01:26Z</time>
      </trkpt>
      <trkpt lat="43.26134" lon="1.17776">
        <ele>252.65</ele>
        <time>2018-05-20T14:01:44Z</time>
      </trkpt>
      <trkpt lat="43.26134" lon="1.17774">
        <ele>252.72</ele>
        <time>2018-05-20T14:01:45Z</time>
      </trkpt>
      <trkpt lat="43.26132" lon="1.1777">
        <ele>252.95</ele>
        <time>2018-05-20T14:01:54Z</time>
      </trkpt>
      <trkpt lat="43.26128" lon="1.17755">
        <ele>253.01</ele>
        <time>2018-05-20T14:02:07Z</time>
      </trkpt>
      <trkpt lat="43.26127" lon="1.17742">
        <ele>253.38</ele>
        <time>2018-05-20T14:02:17Z</time>
      </trkpt>
      <trkpt lat="43.26127" lon="1.17738">
        <ele>253.44</ele>
        <time>2018-05-20T14:02:19Z</time>
      </trkpt>
      <trkpt lat="43.26121" lon="1.17715">
        <ele>254.56</ele>
        <time>2018-05-20T14:02:34Z</time>
      </trkpt>
      <trkpt lat="43.26121" lon="1.17693">
        <ele>255.29</ele>
        <time>2018-05-20T14:02:48Z</time>
      </trkpt>
      <trkpt lat="43.26123" lon="1.17682">
        <ele>256.09</ele>
        <time>2018-05-20T14:03:00Z</time>
      </trkpt>
      <trkpt lat="43.26119" lon="1.17676">
        <ele>256.78</ele>
        <time>2018-05-20T14:03:12Z</time>
      </trkpt>
      <trkpt lat="43.2611" lon="1.17662">
        <ele>257.24</ele>
        <time>2018-05-20T14:03:27Z</time>
      </trkpt>
      <trkpt lat="43.26105" lon="1.17656">
        <ele>257.49</ele>
        <time>2018-05-20T14:03:31Z</time>
      </trkpt>
      <trkpt lat="43.26097" lon="1.17641">
        <ele>257.76</ele>
        <time>2018-05-20T14:03:43Z</time>
      </trkpt>
      <trkpt lat="43.26094" lon="1.17638">
        <ele>257.88</ele>
        <time>2018-05-20T14:03:47Z</time>
      </trkpt>
      <trkpt lat="43.26091" lon="1.17631">
        <ele>258.08</ele>
        <time>2018-05-20T14:03:52Z</time>
      </trkpt>
      <trkpt lat="43.26084" lon="1.17614">
        <ele>258.75</ele>
        <time>2018-05-20T14:04:10Z</time>
      </trkpt>
      <trkpt lat="43.26078" lon="1.17605">
        <ele>258.81</ele>
        <time>2018-05-20T14:04:18Z</time>
      </trkpt>
      <trkpt lat="43.26065" lon="1.17585">
        <ele>258.54</ele>
        <time>2018-05-20T14:04:33Z</time>
      </trkpt>
      <trkpt lat="43.26061" lon="1.1758">
        <ele>258.5</ele>
        <time>2018-05-20T14:04:37Z</time>
      </trkpt>
      <trkpt lat="43.2605" lon="1.17563">
        <ele>258.3</ele>
        <time>2018-05-20T14:04:53Z</time>
      </trkpt>
      <trkpt lat="43.26044" lon="1.17546">
        <ele>258.61</ele>
        <time>2018-05-20T14:05:08Z</time>
      </trkpt>
      <trkpt lat="43.26033" lon="1.1753">
        <ele>258.73</ele>
        <time>2018-05-20T14:05:22Z</time>
      </trkpt>
      <trkpt lat="43.26034" lon="1.17522">
        <ele>258.76</ele>
        <time>2018-05-20T14:05:24Z</time>
      </trkpt>
      <trkpt lat="43.26025" lon="1.17513">
        <ele>258.95</ele>
        <time>2018-05-20T14:05:32Z</time>
      </trkpt>
      <trkpt lat="43.26023" lon="1.17512">
        <ele>258.97</ele>
        <time>2018-05-20T14:05:34Z</time>
      </trkpt>
      <trkpt lat="43.26014" lon="1.17495">
        <ele>259.06</ele>
        <time>2018-05-20T14:05:48Z</time>
      </trkpt>
      <trkpt lat="43.26012" lon="1.17493">
        <ele>259.1</ele>
        <time>2018-05-20T14:05:50Z</time>
      </trkpt>
      <trkpt lat="43.26002" lon="1.17475">
        <ele>259.43</ele>
        <time>2018-05-20T14:06:04Z</time>
      </trkpt>
      <trkpt lat="43.25987" lon="1.17453">
        <ele>259.99</ele>
        <time>2018-05-20T14:06:23Z</time>
      </trkpt>
      <trkpt lat="43.25979" lon="1.17447">
        <ele>260.29</ele>
        <time>2018-05-20T14:06:30Z</time>
      </trkpt>
      <trkpt lat="43.25974" lon="1.17432">
        <ele>260.46</ele>
        <time>2018-05-20T14:06:42Z</time>
      </trkpt>
      <trkpt lat="43.25965" lon="1.17415">
        <ele>260.9</ele>
        <time>2018-05-20T14:06:59Z</time>
      </trkpt>
      <trkpt lat="43.25957" lon="1.17391">
        <ele>261.49</ele>
        <time>2018-05-20T14:07:19Z</time>
      </trkpt>
      <trkpt lat="43.25949" lon="1.17373">
        <ele>261.76</ele>
        <time>2018-05-20T14:07:33Z</time>
      </trkpt>
      <trkpt lat="43.25947" lon="1.17358">
        <ele>262.05</ele>
        <time>2018-05-20T14:07:53Z</time>
      </trkpt>
      <trkpt lat="43.25944" lon="1.17334">
        <ele>261.51</ele>
        <time>2018-05-20T14:08:12Z</time>
      </trkpt>
      <trkpt lat="43.25928" lon="1.17319">
        <ele>259.35</ele>
        <time>2018-05-20T14:08:31Z</time>
      </trkpt>
      <trkpt lat="43.25925" lon="1.17316">
        <ele>258.6</ele>
        <time>2018-05-20T14:08:35Z</time>
      </trkpt>
      <trkpt lat="43.25922" lon="1.17298">
        <ele>256.31</ele>
        <time>2018-05-20T14:08:49Z</time>
      </trkpt>
      <trkpt lat="43.2592" lon="1.17272">
        <ele>253.23</ele>
        <time>2018-05-20T14:09:02Z</time>
      </trkpt>
      <trkpt lat="43.25917" lon="1.17256">
        <ele>251.9</ele>
        <time>2018-05-20T14:09:09Z</time>
      </trkpt>
      <trkpt lat="43.25913" lon="1.17237">
        <ele>250.35</ele>
        <time>2018-05-20T14:09:19Z</time>
      </trkpt>
      <trkpt lat="43.25886" lon="1.17213">
        <ele>247.05</ele>
        <time>2018-05-20T14:09:43Z</time>
      </trkpt>
      <trkpt lat="43.25878" lon="1.17201">
        <ele>245.95</ele>
        <time>2018-05-20T14:09:53Z</time>
      </trkpt>
      <trkpt lat="43.25862" lon="1.17189">
        <ele>244.59</ele>
        <time>2018-05-20T14:10:08Z</time>
      </trkpt>
      <trkpt lat="43.25849" lon="1.17179">
        <ele>243.44</ele>
        <time>2018-05-20T14:10:21Z</time>
      </trkpt>
      <trkpt lat="43.2584" lon="1.17165">
        <ele>242.65</ele>
        <time>2018-05-20T14:10:31Z</time>
      </trkpt>
      <trkpt lat="43.25831" lon="1.17148">
        <ele>240.72</ele>
        <time>2018-05-20T14:10:47Z</time>
      </trkpt>
      <trkpt lat="43.25829" lon="1.17143">
        <ele>239.94</ele>
        <time>2018-05-20T14:11:05Z</time>
      </trkpt>
      <trkpt lat="43.25817" lon="1.1713">
        <ele>239.42</ele>
        <time>2018-05-20T14:11:20Z</time>
      </trkpt>
      <trkpt lat="43.25812" lon="1.17124">
        <ele>239.46</ele>
        <time>2018-05-20T14:11:28Z</time>
      </trkpt>
      <trkpt lat="43.25802" lon="1.17109">
        <ele>240.32</ele>
        <time>2018-05-20T14:11:42Z</time>
      </trkpt>
      <trkpt lat="43.25798" lon="1.17105">
        <ele>240.4</ele>
        <time>2018-05-20T14:11:45Z</time>
      </trkpt>
      <trkpt lat="43.25792" lon="1.17094">
        <ele>240.67</ele>
        <time>2018-05-20T14:11:56Z</time>
      </trkpt>
      <trkpt lat="43.25788" lon="1.17089">
        <ele>240.7</ele>
        <time>2018-05-20T14:12:01Z</time>
      </trkpt>
      <trkpt lat="43.2577" lon="1.17072">
        <ele>240.66</ele>
        <time>2018-05-20T14:12:16Z</time>
      </trkpt>
      <trkpt lat="43.25756" lon="1.17054">
        <ele>240.71</ele>
        <time>2018-05-20T14:12:27Z</time>
      </trkpt>
      <trkpt lat="43.25756" lon="1.17052">
        <ele>240.73</ele>
        <time>2018-05-20T14:12:28Z</time>
      </trkpt>
      <trkpt lat="43.25755" lon="1.1705">
        <ele>240.74</ele>
        <time>2018-05-20T14:12:29Z</time>
      </trkpt>
      <trkpt lat="43.25755" lon="1.17048">
        <ele>240.77</ele>
        <time>2018-05-20T14:12:30Z</time>
      </trkpt>
      <trkpt lat="43.25754" lon="1.17046">
        <ele>240.79</ele>
        <time>2018-05-20T14:12:31Z</time>
      </trkpt>
      <trkpt lat="43.25752" lon="1.17044">
        <ele>240.8</ele>
        <time>2018-05-20T14:12:32Z</time>
      </trkpt>
      <trkpt lat="43.25752" lon="1.17044">
        <ele>240.8</ele>
        <time>2018-05-20T14:12:33Z</time>
      </trkpt>
      <trkpt lat="43.25751" lon="1.17042">
        <ele>240.8</ele>
        <time>2018-05-20T14:12:34Z</time>
      </trkpt>
      <trkpt lat="43.25751" lon="1.17042">
        <ele>240.8</ele>
        <time>2018-05-20T14:12:35Z</time>
      </trkpt>
      <trkpt lat="43.25738" lon="1.1702">
        <ele>240.25</ele>
        <time>2018-05-20T14:12:49Z</time>
      </trkpt>
      <trkpt lat="43.25732" lon="1.17017">
        <ele>239.58</ele>
        <time>2018-05-20T14:12:56Z</time>
      </trkpt>
      <trkpt lat="43.25731" lon="1.17018">
        <ele>239.35</ele>
        <time>2018-05-20T14:12:59Z</time>
      </trkpt>
      <trkpt lat="43.2573" lon="1.17018">
        <ele>239.25</ele>
        <time>2018-05-20T14:13:00Z</time>
      </trkpt>
      <trkpt lat="43.2573" lon="1.17019">
        <ele>239.05</ele>
        <time>2018-05-20T14:13:01Z</time>
      </trkpt>
      <trkpt lat="43.25729" lon="1.17019">
        <ele>239.05</ele>
        <time>2018-05-20T14:13:02Z</time>
      </trkpt>
      <trkpt lat="43.25729" lon="1.17019">
        <ele>238.83</ele>
        <time>2018-05-20T14:13:03Z</time>
      </trkpt>
      <trkpt lat="43.25727" lon="1.17019">
        <ele>238.77</ele>
        <time>2018-05-20T14:13:04Z</time>
      </trkpt>
      <trkpt lat="43.25726" lon="1.17019">
        <ele>238.73</ele>
        <time>2018-05-20T14:13:05Z</time>
      </trkpt>
      <trkpt lat="43.25725" lon="1.17017">
        <ele>238.7</ele>
        <time>2018-05-20T14:13:06Z</time>
      </trkpt>
      <trkpt lat="43.25724" lon="1.17017">
        <ele>238.68</ele>
        <time>2018-05-20T14:13:07Z</time>
      </trkpt>
      <trkpt lat="43.25724" lon="1.17017">
        <ele>238.66</ele>
        <time>2018-05-20T14:13:08Z</time>
      </trkpt>
      <trkpt lat="43.25705" lon="1.17022">
        <ele>238.12</ele>
        <time>2018-05-20T14:13:22Z</time>
      </trkpt>
      <trkpt lat="43.25685" lon="1.17014">
        <ele>237.01</ele>
        <time>2018-05-20T14:13:37Z</time>
      </trkpt>
      <trkpt lat="43.25665" lon="1.1701">
        <ele>236.7</ele>
        <time>2018-05-20T14:13:55Z</time>
      </trkpt>
      <trkpt lat="43.25654" lon="1.17003">
        <ele>236.56</ele>
        <time>2018-05-20T14:14:06Z</time>
      </trkpt>
      <trkpt lat="43.25653" lon="1.17002">
        <ele>236.55</ele>
        <time>2018-05-20T14:14:07Z</time>
      </trkpt>
      <trkpt lat="43.25652" lon="1.17002">
        <ele>236.55</ele>
        <time>2018-05-20T14:14:08Z</time>
      </trkpt>
      <trkpt lat="43.25639" lon="1.16998">
        <ele>236.35</ele>
        <time>2018-05-20T14:14:17Z</time>
      </trkpt>
      <trkpt lat="43.25639" lon="1.16998">
        <ele>236.32</ele>
        <time>2018-05-20T14:14:18Z</time>
      </trkpt>
      <trkpt lat="43.25618" lon="1.16999">
        <ele>236.48</ele>
        <time>2018-05-20T14:14:34Z</time>
      </trkpt>
      <trkpt lat="43.25608" lon="1.16995">
        <ele>237.05</ele>
        <time>2018-05-20T14:14:47Z</time>
      </trkpt>
      <trkpt lat="43.25593" lon="1.17">
        <ele>238.38</ele>
        <time>2018-05-20T14:15:00Z</time>
      </trkpt>
      <trkpt lat="43.25586" lon="1.17005">
        <ele>238.51</ele>
        <time>2018-05-20T14:15:02Z</time>
      </trkpt>
      <trkpt lat="43.2558" lon="1.17007">
        <ele>239.36</ele>
        <time>2018-05-20T14:15:08Z</time>
      </trkpt>
      <trkpt lat="43.25577" lon="1.17007">
        <ele>239.47</ele>
        <time>2018-05-20T14:15:10Z</time>
      </trkpt>
      <trkpt lat="43.25576" lon="1.17007">
        <ele>239.57</ele>
        <time>2018-05-20T14:15:11Z</time>
      </trkpt>
      <trkpt lat="43.25571" lon="1.17007">
        <ele>239.67</ele>
        <time>2018-05-20T14:15:12Z</time>
      </trkpt>
      <trkpt lat="43.25567" lon="1.17007">
        <ele>240.68</ele>
        <time>2018-05-20T14:15:19Z</time>
      </trkpt>
      <trkpt lat="43.25561" lon="1.17008">
        <ele>240.8</ele>
        <time>2018-05-20T14:15:20Z</time>
      </trkpt>
      <trkpt lat="43.25558" lon="1.17008">
        <ele>240.89</ele>
        <time>2018-05-20T14:15:21Z</time>
      </trkpt>
      <trkpt lat="43.25554" lon="1.17007">
        <ele>241.65</ele>
        <time>2018-05-20T14:15:29Z</time>
      </trkpt>
      <trkpt lat="43.25549" lon="1.17005">
        <ele>242.33</ele>
        <time>2018-05-20T14:15:33Z</time>
      </trkpt>
      <trkpt lat="43.25544" lon="1.17003">
        <ele>242.4</ele>
        <time>2018-05-20T14:15:34Z</time>
      </trkpt>
      <trkpt lat="43.25536" lon="1.17002">
        <ele>243.18</ele>
        <time>2018-05-20T14:15:43Z</time>
      </trkpt>
      <trkpt lat="43.25529" lon="1.16998">
        <ele>243.26</ele>
        <time>2018-05-20T14:15:44Z</time>
      </trkpt>
      <trkpt lat="43.25523" lon="1.16998">
        <ele>243.34</ele>
        <time>2018-05-20T14:15:45Z</time>
      </trkpt>
      <trkpt lat="43.25515" lon="1.16995">
        <ele>244.47</ele>
        <time>2018-05-20T14:15:59Z</time>
      </trkpt>
      <trkpt lat="43.25503" lon="1.16991">
        <ele>245.13</ele>
        <time>2018-05-20T14:16:13Z</time>
      </trkpt>
      <trkpt lat="43.25495" lon="1.16989">
        <ele>245.29</ele>
        <time>2018-05-20T14:16:16Z</time>
      </trkpt>
      <trkpt lat="43.25488" lon="1.16987">
        <ele>246.48</ele>
        <time>2018-05-20T14:16:34Z</time>
      </trkpt>
      <trkpt lat="43.25478" lon="1.16982">
        <ele>247.86</ele>
        <time>2018-05-20T14:16:50Z</time>
      </trkpt>
      <trkpt lat="43.25466" lon="1.16976">
        <ele>248.17</ele>
        <time>2018-05-20T14:16:54Z</time>
      </trkpt>
      <trkpt lat="43.25457" lon="1.16971">
        <ele>249.16</ele>
        <time>2018-05-20T14:17:05Z</time>
      </trkpt>
      <trkpt lat="43.25445" lon="1.16965">
        <ele>250.47</ele>
        <time>2018-05-20T14:17:20Z</time>
      </trkpt>
      <trkpt lat="43.25429" lon="1.16958">
        <ele>253.12</ele>
        <time>2018-05-20T14:17:44Z</time>
      </trkpt>
      <trkpt lat="43.2541" lon="1.1695">
        <ele>255.81</ele>
        <time>2018-05-20T14:18:04Z</time>
      </trkpt>
      <trkpt lat="43.25399" lon="1.16949">
        <ele>256.05</ele>
        <time>2018-05-20T14:18:07Z</time>
      </trkpt>
      <trkpt lat="43.25388" lon="1.16947">
        <ele>256.4</ele>
        <time>2018-05-20T14:18:13Z</time>
      </trkpt>
      <trkpt lat="43.25377" lon="1.16944">
        <ele>257.75</ele>
        <time>2018-05-20T14:18:28Z</time>
      </trkpt>
      <trkpt lat="43.25367" lon="1.1694">
        <ele>258.45</ele>
        <time>2018-05-20T14:18:38Z</time>
      </trkpt>
      <trkpt lat="43.25357" lon="1.16932">
        <ele>258.59</ele>
        <time>2018-05-20T14:18:44Z</time>
      </trkpt>
      <trkpt lat="43.25336" lon="1.16925">
        <ele>258.95</ele>
        <time>2018-05-20T14:18:49Z</time>
      </trkpt>
      <trkpt lat="43.25329" lon="1.1693">
        <ele>260.34</ele>
        <time>2018-05-20T14:19:01Z</time>
      </trkpt>
      <trkpt lat="43.25318" lon="1.16936">
        <ele>261.69</ele>
        <time>2018-05-20T14:19:18Z</time>
      </trkpt>
      <trkpt lat="43.25315" lon="1.16961">
        <ele>264.14</ele>
        <time>2018-05-20T14:19:42Z</time>
      </trkpt>
      <trkpt lat="43.25316" lon="1.16997">
        <ele>265.47</ele>
        <time>2018-05-20T14:20:03Z</time>
      </trkpt>
      <trkpt lat="43.2532" lon="1.17014">
        <ele>266</ele>
        <time>2018-05-20T14:20:14Z</time>
      </trkpt>
      <trkpt lat="43.25325" lon="1.17024">
        <ele>266.56</ele>
        <time>2018-05-20T14:20:21Z</time>
      </trkpt>
      <trkpt lat="43.25327" lon="1.1703">
        <ele>266.98</ele>
        <time>2018-05-20T14:20:26Z</time>
      </trkpt>
      <trkpt lat="43.25325" lon="1.17042">
        <ele>267.52</ele>
        <time>2018-05-20T14:20:35Z</time>
      </trkpt>
      <trkpt lat="43.25328" lon="1.17051">
        <ele>267.68</ele>
        <time>2018-05-20T14:20:40Z</time>
      </trkpt>
      <trkpt lat="43.2533" lon="1.17059">
        <ele>267.83</ele>
        <time>2018-05-20T14:20:45Z</time>
      </trkpt>
      <trkpt lat="43.25323" lon="1.17081">
        <ele>268.63</ele>
        <time>2018-05-20T14:20:59Z</time>
      </trkpt>
      <trkpt lat="43.2531" lon="1.17107">
        <ele>268.08</ele>
        <time>2018-05-20T14:21:16Z</time>
      </trkpt>
      <trkpt lat="43.25303" lon="1.17126">
        <ele>267.33</ele>
        <time>2018-05-20T14:21:26Z</time>
      </trkpt>
      <trkpt lat="43.25295" lon="1.17149">
        <ele>267.11</ele>
        <time>2018-05-20T14:21:38Z</time>
      </trkpt>
      <trkpt lat="43.25293" lon="1.17154">
        <ele>266.99</ele>
        <time>2018-05-20T14:21:44Z</time>
      </trkpt>
      <trkpt lat="43.2529" lon="1.17162">
        <ele>266.95</ele>
        <time>2018-05-20T14:21:49Z</time>
      </trkpt>
      <trkpt lat="43.25285" lon="1.17175">
        <ele>266.24</ele>
        <time>2018-05-20T14:22:02Z</time>
      </trkpt>
      <trkpt lat="43.25279" lon="1.17203">
        <ele>265.8</ele>
        <time>2018-05-20T14:22:16Z</time>
      </trkpt>
      <trkpt lat="43.25271" lon="1.17229">
        <ele>265.12</ele>
        <time>2018-05-20T14:22:29Z</time>
      </trkpt>
      <trkpt lat="43.25264" lon="1.17253">
        <ele>264.75</ele>
        <time>2018-05-20T14:22:44Z</time>
      </trkpt>
      <trkpt lat="43.25259" lon="1.17269">
        <ele>263.77</ele>
        <time>2018-05-20T14:22:57Z</time>
      </trkpt>
      <trkpt lat="43.25252" lon="1.17299">
        <ele>263.37</ele>
        <time>2018-05-20T14:23:13Z</time>
      </trkpt>
      <trkpt lat="43.25245" lon="1.17328">
        <ele>262.08</ele>
        <time>2018-05-20T14:23:31Z</time>
      </trkpt>
      <trkpt lat="43.25238" lon="1.17356">
        <ele>261.66</ele>
        <time>2018-05-20T14:23:47Z</time>
      </trkpt>
      <trkpt lat="43.25237" lon="1.17372">
        <ele>261.44</ele>
        <time>2018-05-20T14:24:02Z</time>
      </trkpt>
      <trkpt lat="43.25234" lon="1.17392">
        <ele>260.77</ele>
        <time>2018-05-20T14:24:16Z</time>
      </trkpt>
      <trkpt lat="43.25233" lon="1.17409">
        <ele>260.31</ele>
        <time>2018-05-20T14:24:27Z</time>
      </trkpt>
      <trkpt lat="43.25234" lon="1.17409">
        <ele>260.27</ele>
        <time>2018-05-20T14:24:28Z</time>
      </trkpt>
      <trkpt lat="43.25234" lon="1.1741">
        <ele>260.19</ele>
        <time>2018-05-20T14:24:29Z</time>
      </trkpt>
      <trkpt lat="43.25235" lon="1.17412">
        <ele>260.16</ele>
        <time>2018-05-20T14:24:30Z</time>
      </trkpt>
      <trkpt lat="43.25234" lon="1.17414">
        <ele>260.14</ele>
        <time>2018-05-20T14:24:31Z</time>
      </trkpt>
      <trkpt lat="43.25234" lon="1.17416">
        <ele>260.13</ele>
        <time>2018-05-20T14:24:32Z</time>
      </trkpt>
      <trkpt lat="43.25235" lon="1.17418">
        <ele>260.12</ele>
        <time>2018-05-20T14:24:33Z</time>
      </trkpt>
      <trkpt lat="43.25235" lon="1.1742">
        <ele>260.11</ele>
        <time>2018-05-20T14:24:34Z</time>
      </trkpt>
      <trkpt lat="43.25233" lon="1.17437">
        <ele>259.59</ele>
        <time>2018-05-20T14:24:46Z</time>
      </trkpt>
      <trkpt lat="43.25233" lon="1.17439">
        <ele>259.48</ele>
        <time>2018-05-20T14:24:47Z</time>
      </trkpt>
      <trkpt lat="43.25233" lon="1.17441">
        <ele>259.24</ele>
        <time>2018-05-20T14:24:48Z</time>
      </trkpt>
      <trkpt lat="43.25229" lon="1.17458">
        <ele>258.39</ele>
        <time>2018-05-20T14:25:01Z</time>
      </trkpt>
      <trkpt lat="43.25227" lon="1.17476">
        <ele>258.06</ele>
        <time>2018-05-20T14:25:17Z</time>
      </trkpt>
      <trkpt lat="43.25227" lon="1.17497">
        <ele>257.86</ele>
        <time>2018-05-20T14:25:32Z</time>
      </trkpt>
      <trkpt lat="43.25225" lon="1.17504">
        <ele>257.65</ele>
        <time>2018-05-20T14:25:35Z</time>
      </trkpt>
      <trkpt lat="43.25225" lon="1.17505">
        <ele>257.62</ele>
        <time>2018-05-20T14:25:36Z</time>
      </trkpt>
      <trkpt lat="43.25225" lon="1.17507">
        <ele>257.6</ele>
        <time>2018-05-20T14:25:37Z</time>
      </trkpt>
      <trkpt lat="43.25224" lon="1.17531">
        <ele>257.2</ele>
        <time>2018-05-20T14:25:51Z</time>
      </trkpt>
      <trkpt lat="43.25227" lon="1.17554">
        <ele>257.33</ele>
        <time>2018-05-20T14:26:06Z</time>
      </trkpt>
      <trkpt lat="43.25228" lon="1.17565">
        <ele>257.27</ele>
        <time>2018-05-20T14:26:15Z</time>
      </trkpt>
      <trkpt lat="43.25228" lon="1.17553">
        <ele>256.51</ele>
        <time>2018-05-20T14:26:27Z</time>
      </trkpt>
      <trkpt lat="43.25225" lon="1.17549">
        <ele>256.44</ele>
        <time>2018-05-20T14:26:31Z</time>
      </trkpt>
      <trkpt lat="43.25223" lon="1.17542">
        <ele>256.45</ele>
        <time>2018-05-20T14:26:33Z</time>
      </trkpt>
      <trkpt lat="43.25221" lon="1.17541">
        <ele>256.47</ele>
        <time>2018-05-20T14:26:34Z</time>
      </trkpt>
      <trkpt lat="43.25221" lon="1.1754">
        <ele>256.48</ele>
        <time>2018-05-20T14:26:35Z</time>
      </trkpt>
      <trkpt lat="43.25219" lon="1.17539">
        <ele>256.48</ele>
        <time>2018-05-20T14:26:36Z</time>
      </trkpt>
      <trkpt lat="43.25218" lon="1.17538">
        <ele>256.49</ele>
        <time>2018-05-20T14:26:37Z</time>
      </trkpt>
      <trkpt lat="43.25217" lon="1.17538">
        <ele>256.5</ele>
        <time>2018-05-20T14:26:38Z</time>
      </trkpt>
      <trkpt lat="43.2521" lon="1.17531">
        <ele>256.59</ele>
        <time>2018-05-20T14:26:46Z</time>
      </trkpt>
      <trkpt lat="43.25209" lon="1.1753">
        <ele>256.6</ele>
        <time>2018-05-20T14:26:47Z</time>
      </trkpt>
      <trkpt lat="43.25197" lon="1.17516">
        <ele>256.97</ele>
        <time>2018-05-20T14:26:59Z</time>
      </trkpt>
      <trkpt lat="43.25182" lon="1.17504">
        <ele>257.46</ele>
        <time>2018-05-20T14:27:14Z</time>
      </trkpt>
      <trkpt lat="43.25181" lon="1.17502">
        <ele>257.48</ele>
        <time>2018-05-20T14:27:15Z</time>
      </trkpt>
      <trkpt lat="43.25181" lon="1.17501">
        <ele>257.49</ele>
        <time>2018-05-20T14:27:16Z</time>
      </trkpt>
      <trkpt lat="43.2518" lon="1.175">
        <ele>257.5</ele>
        <time>2018-05-20T14:27:17Z</time>
      </trkpt>
      <trkpt lat="43.25179" lon="1.175">
        <ele>257.52</ele>
        <time>2018-05-20T14:27:18Z</time>
      </trkpt>
      <trkpt lat="43.25164" lon="1.17483">
        <ele>258.04</ele>
        <time>2018-05-20T14:27:35Z</time>
      </trkpt>
      <trkpt lat="43.25156" lon="1.17479">
        <ele>258.27</ele>
        <time>2018-05-20T14:27:43Z</time>
      </trkpt>
      <trkpt lat="43.25142" lon="1.17464">
        <ele>258.53</ele>
        <time>2018-05-20T14:27:58Z</time>
      </trkpt>
      <trkpt lat="43.25125" lon="1.17445">
        <ele>259.23</ele>
        <time>2018-05-20T14:28:14Z</time>
      </trkpt>
      <trkpt lat="43.25105" lon="1.17426">
        <ele>259.99</ele>
        <time>2018-05-20T14:28:32Z</time>
      </trkpt>
      <trkpt lat="43.25091" lon="1.17413">
        <ele>260.54</ele>
        <time>2018-05-20T14:28:48Z</time>
      </trkpt>
      <trkpt lat="43.25075" lon="1.17396">
        <ele>261.2</ele>
        <time>2018-05-20T14:29:03Z</time>
      </trkpt>
      <trkpt lat="43.25062" lon="1.17382">
        <ele>261.75</ele>
        <time>2018-05-20T14:29:16Z</time>
      </trkpt>
      <trkpt lat="43.2506" lon="1.1738">
        <ele>261.78</ele>
        <time>2018-05-20T14:29:17Z</time>
      </trkpt>
      <trkpt lat="43.25059" lon="1.17379">
        <ele>261.8</ele>
        <time>2018-05-20T14:29:18Z</time>
      </trkpt>
      <trkpt lat="43.25058" lon="1.17378">
        <ele>261.86</ele>
        <time>2018-05-20T14:29:19Z</time>
      </trkpt>
      <trkpt lat="43.25051" lon="1.17364">
        <ele>262.48</ele>
        <time>2018-05-20T14:29:31Z</time>
      </trkpt>
      <trkpt lat="43.25048" lon="1.17361">
        <ele>262.57</ele>
        <time>2018-05-20T14:29:33Z</time>
      </trkpt>
      <trkpt lat="43.25047" lon="1.1736">
        <ele>262.62</ele>
        <time>2018-05-20T14:29:34Z</time>
      </trkpt>
      <trkpt lat="43.25046" lon="1.17358">
        <ele>262.64</ele>
        <time>2018-05-20T14:29:35Z</time>
      </trkpt>
      <trkpt lat="43.2504" lon="1.17351">
        <ele>263.1</ele>
        <time>2018-05-20T14:29:41Z</time>
      </trkpt>
      <trkpt lat="43.2504" lon="1.17349">
        <ele>263.2</ele>
        <time>2018-05-20T14:29:42Z</time>
      </trkpt>
      <trkpt lat="43.25033" lon="1.17344">
        <ele>263.78</ele>
        <time>2018-05-20T14:29:50Z</time>
      </trkpt>
      <trkpt lat="43.25024" lon="1.17335">
        <ele>264.56</ele>
        <time>2018-05-20T14:30:05Z</time>
      </trkpt>
      <trkpt lat="43.25019" lon="1.17319">
        <ele>265.25</ele>
        <time>2018-05-20T14:30:14Z</time>
      </trkpt>
      <trkpt lat="43.25018" lon="1.17317">
        <ele>265.29</ele>
        <time>2018-05-20T14:30:15Z</time>
      </trkpt>
      <trkpt lat="43.25017" lon="1.17315">
        <ele>265.36</ele>
        <time>2018-05-20T14:30:16Z</time>
      </trkpt>
      <trkpt lat="43.25015" lon="1.17313">
        <ele>265.43</ele>
        <time>2018-05-20T14:30:17Z</time>
      </trkpt>
      <trkpt lat="43.25014" lon="1.17311">
        <ele>265.52</ele>
        <time>2018-05-20T14:30:18Z</time>
      </trkpt>
      <trkpt lat="43.25014" lon="1.1731">
        <ele>265.6</ele>
        <time>2018-05-20T14:30:19Z</time>
      </trkpt>
      <trkpt lat="43.25011" lon="1.17303">
        <ele>266.1</ele>
        <time>2018-05-20T14:30:25Z</time>
      </trkpt>
      <trkpt lat="43.2501" lon="1.17301">
        <ele>266.26</ele>
        <time>2018-05-20T14:30:27Z</time>
      </trkpt>
      <trkpt lat="43.25009" lon="1.17299">
        <ele>266.36</ele>
        <time>2018-05-20T14:30:28Z</time>
      </trkpt>
      <trkpt lat="43.25002" lon="1.17284">
        <ele>267.61</ele>
        <time>2018-05-20T14:30:42Z</time>
      </trkpt>
      <trkpt lat="43.25" lon="1.17276">
        <ele>267.86</ele>
        <time>2018-05-20T14:30:47Z</time>
      </trkpt>
      <trkpt lat="43.24991" lon="1.17257">
        <ele>268.81</ele>
        <time>2018-05-20T14:31:00Z</time>
      </trkpt>
      <trkpt lat="43.24983" lon="1.17238">
        <ele>270.25</ele>
        <time>2018-05-20T14:31:14Z</time>
      </trkpt>
      <trkpt lat="43.24979" lon="1.17228">
        <ele>271.16</ele>
        <time>2018-05-20T14:31:31Z</time>
      </trkpt>
      <trkpt lat="43.24977" lon="1.17214">
        <ele>271.59</ele>
        <time>2018-05-20T14:31:52Z</time>
      </trkpt>
      <trkpt lat="43.24976" lon="1.17187">
        <ele>273.21</ele>
        <time>2018-05-20T14:32:09Z</time>
      </trkpt>
      <trkpt lat="43.24972" lon="1.17169">
        <ele>275.4</ele>
        <time>2018-05-20T14:32:28Z</time>
      </trkpt>
      <trkpt lat="43.24962" lon="1.17158">
        <ele>275.64</ele>
        <time>2018-05-20T14:32:41Z</time>
      </trkpt>
      <trkpt lat="43.24948" lon="1.17141">
        <ele>275.75</ele>
        <time>2018-05-20T14:32:56Z</time>
      </trkpt>
      <trkpt lat="43.24939" lon="1.17125">
        <ele>276.13</ele>
        <time>2018-05-20T14:33:08Z</time>
      </trkpt>
      <trkpt lat="43.24939" lon="1.17124">
        <ele>276.15</ele>
        <time>2018-05-20T14:33:09Z</time>
      </trkpt>
      <trkpt lat="43.24926" lon="1.17102">
        <ele>277</ele>
        <time>2018-05-20T14:33:24Z</time>
      </trkpt>
      <trkpt lat="43.24913" lon="1.17081">
        <ele>278.08</ele>
        <time>2018-05-20T14:33:40Z</time>
      </trkpt>
      <trkpt lat="43.24898" lon="1.17057">
        <ele>278.52</ele>
        <time>2018-05-20T14:33:59Z</time>
      </trkpt>
      <trkpt lat="43.24893" lon="1.17051">
        <ele>278.55</ele>
        <time>2018-05-20T14:34:05Z</time>
      </trkpt>
      <trkpt lat="43.24886" lon="1.17047">
        <ele>278.53</ele>
        <time>2018-05-20T14:34:15Z</time>
      </trkpt>
      <trkpt lat="43.24884" lon="1.17044">
        <ele>278.43</ele>
        <time>2018-05-20T14:34:18Z</time>
      </trkpt>
      <trkpt lat="43.24883" lon="1.17031">
        <ele>278.29</ele>
        <time>2018-05-20T14:34:31Z</time>
      </trkpt>
      <trkpt lat="43.24881" lon="1.17029">
        <ele>278.39</ele>
        <time>2018-05-20T14:34:49Z</time>
      </trkpt>
      <trkpt lat="43.24871" lon="1.1701">
        <ele>278.52</ele>
        <time>2018-05-20T14:35:06Z</time>
      </trkpt>
      <trkpt lat="43.24869" lon="1.17008">
        <ele>278.6</ele>
        <time>2018-05-20T14:35:08Z</time>
      </trkpt>
      <trkpt lat="43.24852" lon="1.16994">
        <ele>278.63</ele>
        <time>2018-05-20T14:35:24Z</time>
      </trkpt>
      <trkpt lat="43.24851" lon="1.16994">
        <ele>278.61</ele>
        <time>2018-05-20T14:35:25Z</time>
      </trkpt>
      <trkpt lat="43.2485" lon="1.16994">
        <ele>278.59</ele>
        <time>2018-05-20T14:35:26Z</time>
      </trkpt>
      <trkpt lat="43.24849" lon="1.16993">
        <ele>278.56</ele>
        <time>2018-05-20T14:35:27Z</time>
      </trkpt>
      <trkpt lat="43.24848" lon="1.16993">
        <ele>278.53</ele>
        <time>2018-05-20T14:35:28Z</time>
      </trkpt>
      <trkpt lat="43.24847" lon="1.16992">
        <ele>278.48</ele>
        <time>2018-05-20T14:35:29Z</time>
      </trkpt>
      <trkpt lat="43.24845" lon="1.16992">
        <ele>278.34</ele>
        <time>2018-05-20T14:35:30Z</time>
      </trkpt>
      <trkpt lat="43.24844" lon="1.16992">
        <ele>278.28</ele>
        <time>2018-05-20T14:35:31Z</time>
      </trkpt>
      <trkpt lat="43.24843" lon="1.16992">
        <ele>278.25</ele>
        <time>2018-05-20T14:35:32Z</time>
      </trkpt>
      <trkpt lat="43.2484" lon="1.16992">
        <ele>278.16</ele>
        <time>2018-05-20T14:35:35Z</time>
      </trkpt>
      <trkpt lat="43.24839" lon="1.16991">
        <ele>278.11</ele>
        <time>2018-05-20T14:35:36Z</time>
      </trkpt>
      <trkpt lat="43.24832" lon="1.16988">
        <ele>278.05</ele>
        <time>2018-05-20T14:35:43Z</time>
      </trkpt>
      <trkpt lat="43.24831" lon="1.16987">
        <ele>278.05</ele>
        <time>2018-05-20T14:35:44Z</time>
      </trkpt>
      <trkpt lat="43.24823" lon="1.16985">
        <ele>278.38</ele>
        <time>2018-05-20T14:36:02Z</time>
      </trkpt>
      <trkpt lat="43.24823" lon="1.16985">
        <ele>278.39</ele>
        <time>2018-05-20T14:36:03Z</time>
      </trkpt>
      <trkpt lat="43.24822" lon="1.16985">
        <ele>278.42</ele>
        <time>2018-05-20T14:36:04Z</time>
      </trkpt>
      <trkpt lat="43.24822" lon="1.16986">
        <ele>278.45</ele>
        <time>2018-05-20T14:36:05Z</time>
      </trkpt>
      <trkpt lat="43.24821" lon="1.16987">
        <ele>278.48</ele>
        <time>2018-05-20T14:36:06Z</time>
      </trkpt>
      <trkpt lat="43.24808" lon="1.16988">
        <ele>279.04</ele>
        <time>2018-05-20T14:36:21Z</time>
      </trkpt>
      <trkpt lat="43.24807" lon="1.16988">
        <ele>279.08</ele>
        <time>2018-05-20T14:36:22Z</time>
      </trkpt>
      <trkpt lat="43.24806" lon="1.16988">
        <ele>279.11</ele>
        <time>2018-05-20T14:36:23Z</time>
      </trkpt>
      <trkpt lat="43.24804" lon="1.16988">
        <ele>279.13</ele>
        <time>2018-05-20T14:36:24Z</time>
      </trkpt>
      <trkpt lat="43.24803" lon="1.16988">
        <ele>279.15</ele>
        <time>2018-05-20T14:36:25Z</time>
      </trkpt>
      <trkpt lat="43.24802" lon="1.16987">
        <ele>279.24</ele>
        <time>2018-05-20T14:36:26Z</time>
      </trkpt>
      <trkpt lat="43.24801" lon="1.16987">
        <ele>279.3</ele>
        <time>2018-05-20T14:36:27Z</time>
      </trkpt>
      <trkpt lat="43.24785" lon="1.16986">
        <ele>279.73</ele>
        <time>2018-05-20T14:36:40Z</time>
      </trkpt>
      <trkpt lat="43.24777" lon="1.16978">
        <ele>280.21</ele>
        <time>2018-05-20T14:36:50Z</time>
      </trkpt>
      <trkpt lat="43.24776" lon="1.16977">
        <ele>280.25</ele>
        <time>2018-05-20T14:36:51Z</time>
      </trkpt>
      <trkpt lat="43.24769" lon="1.1697">
        <ele>280.55</ele>
        <time>2018-05-20T14:36:58Z</time>
      </trkpt>
      <trkpt lat="43.24754" lon="1.16962">
        <ele>280.99</ele>
        <time>2018-05-20T14:37:14Z</time>
      </trkpt>
      <trkpt lat="43.2474" lon="1.16954">
        <ele>281.2</ele>
        <time>2018-05-20T14:37:28Z</time>
      </trkpt>
      <trkpt lat="43.24726" lon="1.1694">
        <ele>280.04</ele>
        <time>2018-05-20T14:37:42Z</time>
      </trkpt>
      <trkpt lat="43.24714" lon="1.16926">
        <ele>278.74</ele>
        <time>2018-05-20T14:37:55Z</time>
      </trkpt>
      <trkpt lat="43.24703" lon="1.16907">
        <ele>277.34</ele>
        <time>2018-05-20T14:38:09Z</time>
      </trkpt>
      <trkpt lat="43.24703" lon="1.16905">
        <ele>277.16</ele>
        <time>2018-05-20T14:38:11Z</time>
      </trkpt>
      <trkpt lat="43.24702" lon="1.16904">
        <ele>277.04</ele>
        <time>2018-05-20T14:38:12Z</time>
      </trkpt>
      <trkpt lat="43.247" lon="1.16904">
        <ele>276.97</ele>
        <time>2018-05-20T14:38:13Z</time>
      </trkpt>
      <trkpt lat="43.24685" lon="1.16892">
        <ele>276.7</ele>
        <time>2018-05-20T14:38:31Z</time>
      </trkpt>
      <trkpt lat="43.24685" lon="1.16887">
        <ele>276.73</ele>
        <time>2018-05-20T14:38:33Z</time>
      </trkpt>
      <trkpt lat="43.24684" lon="1.16886">
        <ele>276.74</ele>
        <time>2018-05-20T14:38:34Z</time>
      </trkpt>
      <trkpt lat="43.24683" lon="1.16885">
        <ele>276.75</ele>
        <time>2018-05-20T14:38:35Z</time>
      </trkpt>
      <trkpt lat="43.24668" lon="1.16867">
        <ele>277.05</ele>
        <time>2018-05-20T14:38:51Z</time>
      </trkpt>
      <trkpt lat="43.24667" lon="1.16866">
        <ele>277.06</ele>
        <time>2018-05-20T14:38:52Z</time>
      </trkpt>
      <trkpt lat="43.24666" lon="1.16865">
        <ele>277.07</ele>
        <time>2018-05-20T14:38:53Z</time>
      </trkpt>
      <trkpt lat="43.24666" lon="1.16863">
        <ele>277.09</ele>
        <time>2018-05-20T14:38:54Z</time>
      </trkpt>
      <trkpt lat="43.24665" lon="1.16862">
        <ele>277.14</ele>
        <time>2018-05-20T14:38:55Z</time>
      </trkpt>
      <trkpt lat="43.24665" lon="1.16861">
        <ele>277.21</ele>
        <time>2018-05-20T14:38:56Z</time>
      </trkpt>
      <trkpt lat="43.24664" lon="1.1686">
        <ele>277.36</ele>
        <time>2018-05-20T14:38:57Z</time>
      </trkpt>
      <trkpt lat="43.24664" lon="1.16855">
        <ele>278.96</ele>
        <time>2018-05-20T14:39:11Z</time>
      </trkpt>
      <trkpt lat="43.24661" lon="1.16852">
        <ele>279.18</ele>
        <time>2018-05-20T14:39:15Z</time>
      </trkpt>
      <trkpt lat="43.2466" lon="1.16849">
        <ele>279.21</ele>
        <time>2018-05-20T14:39:17Z</time>
      </trkpt>
      <trkpt lat="43.24646" lon="1.16827">
        <ele>279.42</ele>
        <time>2018-05-20T14:39:34Z</time>
      </trkpt>
      <trkpt lat="43.24635" lon="1.16812">
        <ele>279.29</ele>
        <time>2018-05-20T14:39:48Z</time>
      </trkpt>
      <trkpt lat="43.24621" lon="1.16797">
        <ele>279.61</ele>
        <time>2018-05-20T14:40:05Z</time>
      </trkpt>
      <trkpt lat="43.24608" lon="1.16778">
        <ele>279.8</ele>
        <time>2018-05-20T14:40:21Z</time>
      </trkpt>
      <trkpt lat="43.24602" lon="1.16768">
        <ele>280</ele>
        <time>2018-05-20T14:40:28Z</time>
      </trkpt>
      <trkpt lat="43.24598" lon="1.16764">
        <ele>280.17</ele>
        <time>2018-05-20T14:40:32Z</time>
      </trkpt>
      <trkpt lat="43.24597" lon="1.16763">
        <ele>280.2</ele>
        <time>2018-05-20T14:40:33Z</time>
      </trkpt>
      <trkpt lat="43.24596" lon="1.16762">
        <ele>280.26</ele>
        <time>2018-05-20T14:40:34Z</time>
      </trkpt>
      <trkpt lat="43.24587" lon="1.16742">
        <ele>281.06</ele>
        <time>2018-05-20T14:40:51Z</time>
      </trkpt>
      <trkpt lat="43.24583" lon="1.16722">
        <ele>281.7</ele>
        <time>2018-05-20T14:41:05Z</time>
      </trkpt>
      <trkpt lat="43.24582" lon="1.16718">
        <ele>282.21</ele>
        <time>2018-05-20T14:41:28Z</time>
      </trkpt>
      <trkpt lat="43.24578" lon="1.16713">
        <ele>282.1</ele>
        <time>2018-05-20T14:41:55Z</time>
      </trkpt>
      <trkpt lat="43.24572" lon="1.16705">
        <ele>282.18</ele>
        <time>2018-05-20T14:42:01Z</time>
      </trkpt>
      <trkpt lat="43.24557" lon="1.16689">
        <ele>282.87</ele>
        <time>2018-05-20T14:42:17Z</time>
      </trkpt>
      <trkpt lat="43.24546" lon="1.16673">
        <ele>283.16</ele>
        <time>2018-05-20T14:42:31Z</time>
      </trkpt>
      <trkpt lat="43.2454" lon="1.16657">
        <ele>283.12</ele>
        <time>2018-05-20T14:42:45Z</time>
      </trkpt>
      <trkpt lat="43.24526" lon="1.16623">
        <ele>283.06</ele>
        <time>2018-05-20T14:43:07Z</time>
      </trkpt>
      <trkpt lat="43.2452" lon="1.16615">
        <ele>282.98</ele>
        <time>2018-05-20T14:43:14Z</time>
      </trkpt>
      <trkpt lat="43.24514" lon="1.16602">
        <ele>283.14</ele>
        <time>2018-05-20T14:43:28Z</time>
      </trkpt>
      <trkpt lat="43.24513" lon="1.166">
        <ele>283.14</ele>
        <time>2018-05-20T14:43:32Z</time>
      </trkpt>
      <trkpt lat="43.24511" lon="1.16598">
        <ele>283.14</ele>
        <time>2018-05-20T14:43:34Z</time>
      </trkpt>
      <trkpt lat="43.24507" lon="1.16596">
        <ele>283.13</ele>
        <time>2018-05-20T14:43:37Z</time>
      </trkpt>
      <trkpt lat="43.24494" lon="1.16587">
        <ele>283.05</ele>
        <time>2018-05-20T14:43:50Z</time>
      </trkpt>
      <trkpt lat="43.24486" lon="1.16582">
        <ele>282.99</ele>
        <time>2018-05-20T14:43:57Z</time>
      </trkpt>
      <trkpt lat="43.24466" lon="1.1657">
        <ele>282.22</ele>
        <time>2018-05-20T14:44:15Z</time>
      </trkpt>
      <trkpt lat="43.24452" lon="1.16565">
        <ele>281.27</ele>
        <time>2018-05-20T14:44:27Z</time>
      </trkpt>
      <trkpt lat="43.24436" lon="1.1656">
        <ele>280.47</ele>
        <time>2018-05-20T14:44:41Z</time>
      </trkpt>
      <trkpt lat="43.24428" lon="1.16554">
        <ele>278.18</ele>
        <time>2018-05-20T14:44:56Z</time>
      </trkpt>
      <trkpt lat="43.24416" lon="1.16539">
        <ele>275.1</ele>
        <time>2018-05-20T14:45:16Z</time>
      </trkpt>
      <trkpt lat="43.24405" lon="1.16521">
        <ele>272.34</ele>
        <time>2018-05-20T14:45:32Z</time>
      </trkpt>
      <trkpt lat="43.24396" lon="1.16502">
        <ele>269.82</ele>
        <time>2018-05-20T14:45:50Z</time>
      </trkpt>
      <trkpt lat="43.24386" lon="1.16484">
        <ele>266.82</ele>
        <time>2018-05-20T14:46:04Z</time>
      </trkpt>
      <trkpt lat="43.24383" lon="1.16465">
        <ele>263.79</ele>
        <time>2018-05-20T14:46:18Z</time>
      </trkpt>
      <trkpt lat="43.24373" lon="1.1645">
        <ele>260.71</ele>
        <time>2018-05-20T14:46:31Z</time>
      </trkpt>
      <trkpt lat="43.24372" lon="1.16445">
        <ele>260.1</ele>
        <time>2018-05-20T14:46:34Z</time>
      </trkpt>
      <trkpt lat="43.2437" lon="1.16442">
        <ele>258.89</ele>
        <time>2018-05-20T14:46:39Z</time>
      </trkpt>
      <trkpt lat="43.24367" lon="1.1643">
        <ele>256.56</ele>
        <time>2018-05-20T14:46:51Z</time>
      </trkpt>
      <trkpt lat="43.24375" lon="1.1642">
        <ele>253.44</ele>
        <time>2018-05-20T14:47:05Z</time>
      </trkpt>
      <trkpt lat="43.24376" lon="1.16421">
        <ele>253.16</ele>
        <time>2018-05-20T14:47:06Z</time>
      </trkpt>
      <trkpt lat="43.24384" lon="1.16422">
        <ele>252.59</ele>
        <time>2018-05-20T14:47:18Z</time>
      </trkpt>
      <trkpt lat="43.24404" lon="1.16453">
        <ele>250.99</ele>
        <time>2018-05-20T14:47:34Z</time>
      </trkpt>
      <trkpt lat="43.24421" lon="1.16464">
        <ele>250.13</ele>
        <time>2018-05-20T14:47:49Z</time>
      </trkpt>
      <trkpt lat="43.24444" lon="1.16464">
        <ele>249.71</ele>
        <time>2018-05-20T14:48:08Z</time>
      </trkpt>
      <trkpt lat="43.24449" lon="1.16467">
        <ele>249.01</ele>
        <time>2018-05-20T14:48:15Z</time>
      </trkpt>
      <trkpt lat="43.24457" lon="1.16474">
        <ele>248.43</ele>
        <time>2018-05-20T14:48:40Z</time>
      </trkpt>
      <trkpt lat="43.24463" lon="1.1647">
        <ele>248.27</ele>
        <time>2018-05-20T14:48:54Z</time>
      </trkpt>
      <trkpt lat="43.24473" lon="1.16463">
        <ele>246.7</ele>
        <time>2018-05-20T14:49:09Z</time>
      </trkpt>
      <trkpt lat="43.24469" lon="1.16454">
        <ele>246.03</ele>
        <time>2018-05-20T14:49:29Z</time>
      </trkpt>
      <trkpt lat="43.2447" lon="1.16451">
        <ele>246.07</ele>
        <time>2018-05-20T14:49:54Z</time>
      </trkpt>
      <trkpt lat="43.24472" lon="1.16443">
        <ele>246.01</ele>
        <time>2018-05-20T14:50:01Z</time>
      </trkpt>
      <trkpt lat="43.24491" lon="1.16444">
        <ele>242.93</ele>
        <time>2018-05-20T14:50:19Z</time>
      </trkpt>
      <trkpt lat="43.24505" lon="1.16435">
        <ele>240.54</ele>
        <time>2018-05-20T14:50:34Z</time>
      </trkpt>
      <trkpt lat="43.24524" lon="1.16417">
        <ele>237.83</ele>
        <time>2018-05-20T14:50:56Z</time>
      </trkpt>
      <trkpt lat="43.24527" lon="1.16413">
        <ele>237.12</ele>
        <time>2018-05-20T14:51:01Z</time>
      </trkpt>
      <trkpt lat="43.24539" lon="1.16401">
        <ele>235.76</ele>
        <time>2018-05-20T14:51:14Z</time>
      </trkpt>
      <trkpt lat="43.24541" lon="1.16393">
        <ele>235.11</ele>
        <time>2018-05-20T14:51:20Z</time>
      </trkpt>
      <trkpt lat="43.24536" lon="1.16366">
        <ele>234.89</ele>
        <time>2018-05-20T14:51:36Z</time>
      </trkpt>
      <trkpt lat="43.24528" lon="1.16336">
        <ele>235.24</ele>
        <time>2018-05-20T14:51:57Z</time>
      </trkpt>
      <trkpt lat="43.24523" lon="1.16309">
        <ele>235.59</ele>
        <time>2018-05-20T14:52:11Z</time>
      </trkpt>
      <trkpt lat="43.24522" lon="1.16308">
        <ele>235.61</ele>
        <time>2018-05-20T14:52:12Z</time>
      </trkpt>
      <trkpt lat="43.2452" lon="1.16296">
        <ele>235.89</ele>
        <time>2018-05-20T14:52:22Z</time>
      </trkpt>
      <trkpt lat="43.24518" lon="1.1629">
        <ele>236.18</ele>
        <time>2018-05-20T14:52:26Z</time>
      </trkpt>
      <trkpt lat="43.24517" lon="1.16286">
        <ele>236.29</ele>
        <time>2018-05-20T14:52:29Z</time>
      </trkpt>
      <trkpt lat="43.24516" lon="1.1628">
        <ele>236.47</ele>
        <time>2018-05-20T14:52:33Z</time>
      </trkpt>
      <trkpt lat="43.24514" lon="1.16271">
        <ele>236.75</ele>
        <time>2018-05-20T14:52:38Z</time>
      </trkpt>
      <trkpt lat="43.24512" lon="1.1626">
        <ele>237.03</ele>
        <time>2018-05-20T14:52:55Z</time>
      </trkpt>
      <trkpt lat="43.24503" lon="1.16239">
        <ele>237.12</ele>
        <time>2018-05-20T14:53:11Z</time>
      </trkpt>
      <trkpt lat="43.24497" lon="1.16216">
        <ele>237.3</ele>
        <time>2018-05-20T14:53:27Z</time>
      </trkpt>
      <trkpt lat="43.24495" lon="1.16207">
        <ele>237.35</ele>
        <time>2018-05-20T14:53:33Z</time>
      </trkpt>
      <trkpt lat="43.24489" lon="1.16185">
        <ele>237.47</ele>
        <time>2018-05-20T14:53:47Z</time>
      </trkpt>
      <trkpt lat="43.24482" lon="1.16167">
        <ele>237.8</ele>
        <time>2018-05-20T14:53:59Z</time>
      </trkpt>
      <trkpt lat="43.24475" lon="1.16142">
        <ele>238.21</ele>
        <time>2018-05-20T14:54:15Z</time>
      </trkpt>
      <trkpt lat="43.24468" lon="1.16116">
        <ele>238.67</ele>
        <time>2018-05-20T14:54:32Z</time>
      </trkpt>
      <trkpt lat="43.24461" lon="1.16092">
        <ele>238.81</ele>
        <time>2018-05-20T14:54:50Z</time>
      </trkpt>
      <trkpt lat="43.2446" lon="1.16089">
        <ele>238.77</ele>
        <time>2018-05-20T14:54:54Z</time>
      </trkpt>
      <trkpt lat="43.24452" lon="1.1606">
        <ele>238.53</ele>
        <time>2018-05-20T14:55:14Z</time>
      </trkpt>
      <trkpt lat="43.24442" lon="1.16028">
        <ele>238.49</ele>
        <time>2018-05-20T14:55:32Z</time>
      </trkpt>
      <trkpt lat="43.24436" lon="1.16009">
        <ele>238.69</ele>
        <time>2018-05-20T14:55:46Z</time>
      </trkpt>
      <trkpt lat="43.24431" lon="1.1599">
        <ele>238.83</ele>
        <time>2018-05-20T14:55:59Z</time>
      </trkpt>
      <trkpt lat="43.24427" lon="1.1598">
        <ele>238.78</ele>
        <time>2018-05-20T14:56:07Z</time>
      </trkpt>
      <trkpt lat="43.24423" lon="1.15959">
        <ele>238.79</ele>
        <time>2018-05-20T14:56:20Z</time>
      </trkpt>
      <trkpt lat="43.24418" lon="1.15941">
        <ele>238.9</ele>
        <time>2018-05-20T14:56:31Z</time>
      </trkpt>
      <trkpt lat="43.24418" lon="1.15937">
        <ele>238.94</ele>
        <time>2018-05-20T14:56:34Z</time>
      </trkpt>
      <trkpt lat="43.24411" lon="1.15914">
        <ele>238.98</ele>
        <time>2018-05-20T14:56:46Z</time>
      </trkpt>
      <trkpt lat="43.24405" lon="1.15893">
        <ele>239</ele>
        <time>2018-05-20T14:57:00Z</time>
      </trkpt>
      <trkpt lat="43.24399" lon="1.15867">
        <ele>238.9</ele>
        <time>2018-05-20T14:57:17Z</time>
      </trkpt>
      <trkpt lat="43.24402" lon="1.1586">
        <ele>238.78</ele>
        <time>2018-05-20T14:57:34Z</time>
      </trkpt>
      <trkpt lat="43.24389" lon="1.15847">
        <ele>237.3</ele>
        <time>2018-05-20T14:58:00Z</time>
      </trkpt>
      <trkpt lat="43.24378" lon="1.15826">
        <ele>235.58</ele>
        <time>2018-05-20T14:58:29Z</time>
      </trkpt>
      <trkpt lat="43.24376" lon="1.15814">
        <ele>232.84</ele>
        <time>2018-05-20T14:58:46Z</time>
      </trkpt>
      <trkpt lat="43.24374" lon="1.15798">
        <ele>230.18</ele>
        <time>2018-05-20T14:59:04Z</time>
      </trkpt>
      <trkpt lat="43.24367" lon="1.1577">
        <ele>229.08</ele>
        <time>2018-05-20T14:59:22Z</time>
      </trkpt>
      <trkpt lat="43.24359" lon="1.15749">
        <ele>229.09</ele>
        <time>2018-05-20T14:59:35Z</time>
      </trkpt>
      <trkpt lat="43.24352" lon="1.15721">
        <ele>229.14</ele>
        <time>2018-05-20T14:59:54Z</time>
      </trkpt>
      <trkpt lat="43.24352" lon="1.15717">
        <ele>229.13</ele>
        <time>2018-05-20T14:59:57Z</time>
      </trkpt>
      <trkpt lat="43.2435" lon="1.15707">
        <ele>229.32</ele>
        <time>2018-05-20T15:00:20Z</time>
      </trkpt>
      <trkpt lat="43.24349" lon="1.15703">
        <ele>229.32</ele>
        <time>2018-05-20T15:00:22Z</time>
      </trkpt>
      <trkpt lat="43.24347" lon="1.15696">
        <ele>229.27</ele>
        <time>2018-05-20T15:00:26Z</time>
      </trkpt>
      <trkpt lat="43.2434" lon="1.1567">
        <ele>228.48</ele>
        <time>2018-05-20T15:00:41Z</time>
      </trkpt>
      <trkpt lat="43.24335" lon="1.1566">
        <ele>228.09</ele>
        <time>2018-05-20T15:00:53Z</time>
      </trkpt>
      <trkpt lat="43.24326" lon="1.15635">
        <ele>228.35</ele>
        <time>2018-05-20T15:01:11Z</time>
      </trkpt>
      <trkpt lat="43.24325" lon="1.15633">
        <ele>228.42</ele>
        <time>2018-05-20T15:01:13Z</time>
      </trkpt>
      <trkpt lat="43.24319" lon="1.15611">
        <ele>228.52</ele>
        <time>2018-05-20T15:01:28Z</time>
      </trkpt>
      <trkpt lat="43.24312" lon="1.15594">
        <ele>228.79</ele>
        <time>2018-05-20T15:01:43Z</time>
      </trkpt>
      <trkpt lat="43.24304" lon="1.15571">
        <ele>229.12</ele>
        <time>2018-05-20T15:02:00Z</time>
      </trkpt>
      <trkpt lat="43.24304" lon="1.15562">
        <ele>229.18</ele>
        <time>2018-05-20T15:02:12Z</time>
      </trkpt>
      <trkpt lat="43.24299" lon="1.15552">
        <ele>229.04</ele>
        <time>2018-05-20T15:02:17Z</time>
      </trkpt>
      <trkpt lat="43.24287" lon="1.1554">
        <ele>228.62</ele>
        <time>2018-05-20T15:02:29Z</time>
      </trkpt>
      <trkpt lat="43.24276" lon="1.15527">
        <ele>229.04</ele>
        <time>2018-05-20T15:02:41Z</time>
      </trkpt>
      <trkpt lat="43.24266" lon="1.15521">
        <ele>230.44</ele>
        <time>2018-05-20T15:02:52Z</time>
      </trkpt>
      <trkpt lat="43.24265" lon="1.15521">
        <ele>230.48</ele>
        <time>2018-05-20T15:02:53Z</time>
      </trkpt>
      <trkpt lat="43.24259" lon="1.15529">
        <ele>231.15</ele>
        <time>2018-05-20T15:03:03Z</time>
      </trkpt>
      <trkpt lat="43.24259" lon="1.15538">
        <ele>231.63</ele>
        <time>2018-05-20T15:03:08Z</time>
      </trkpt>
      <trkpt lat="43.24257" lon="1.15549">
        <ele>233.27</ele>
        <time>2018-05-20T15:03:20Z</time>
      </trkpt>
      <trkpt lat="43.24253" lon="1.15562">
        <ele>234.03</ele>
        <time>2018-05-20T15:03:24Z</time>
      </trkpt>
      <trkpt lat="43.24238" lon="1.15583">
        <ele>235.85</ele>
        <time>2018-05-20T15:03:48Z</time>
      </trkpt>
      <trkpt lat="43.2424" lon="1.15588">
        <ele>236.51</ele>
        <time>2018-05-20T15:04:05Z</time>
      </trkpt>
      <trkpt lat="43.24248" lon="1.15583">
        <ele>236.67</ele>
        <time>2018-05-20T15:04:14Z</time>
      </trkpt>
      <trkpt lat="43.24261" lon="1.15578">
        <ele>239.07</ele>
        <time>2018-05-20T15:04:30Z</time>
      </trkpt>
      <trkpt lat="43.24251" lon="1.15579">
        <ele>240.1</ele>
        <time>2018-05-20T15:04:49Z</time>
      </trkpt>
      <trkpt lat="43.24242" lon="1.15582">
        <ele>238.14</ele>
        <time>2018-05-20T15:05:03Z</time>
      </trkpt>
      <trkpt lat="43.24232" lon="1.15589">
        <ele>236.86</ele>
        <time>2018-05-20T15:05:14Z</time>
      </trkpt>
      <trkpt lat="43.24228" lon="1.15589">
        <ele>236.85</ele>
        <time>2018-05-20T15:05:18Z</time>
      </trkpt>
      <trkpt lat="43.24222" lon="1.1559">
        <ele>236.94</ele>
        <time>2018-05-20T15:05:23Z</time>
      </trkpt>
      <trkpt lat="43.24213" lon="1.15584">
        <ele>236.99</ele>
        <time>2018-05-20T15:05:37Z</time>
      </trkpt>
      <trkpt lat="43.24209" lon="1.15576">
        <ele>236.99</ele>
        <time>2018-05-20T15:05:54Z</time>
      </trkpt>
      <trkpt lat="43.2419" lon="1.15562">
        <ele>237.06</ele>
        <time>2018-05-20T15:06:13Z</time>
      </trkpt>
      <trkpt lat="43.24183" lon="1.15557">
        <ele>237.3</ele>
        <time>2018-05-20T15:06:20Z</time>
      </trkpt>
      <trkpt lat="43.24181" lon="1.15552">
        <ele>237.36</ele>
        <time>2018-05-20T15:06:24Z</time>
      </trkpt>
      <trkpt lat="43.24176" lon="1.15552">
        <ele>237.18</ele>
        <time>2018-05-20T15:06:44Z</time>
      </trkpt>
      <trkpt lat="43.24175" lon="1.15553">
        <ele>237.04</ele>
        <time>2018-05-20T15:07:17Z</time>
      </trkpt>
      <trkpt lat="43.24174" lon="1.15551">
        <ele>237.2</ele>
        <time>2018-05-20T15:07:41Z</time>
      </trkpt>
      <trkpt lat="43.24178" lon="1.15555">
        <ele>237.19</ele>
        <time>2018-05-20T15:07:47Z</time>
      </trkpt>
      <trkpt lat="43.24199" lon="1.15566">
        <ele>237.22</ele>
        <time>2018-05-20T15:08:03Z</time>
      </trkpt>
      <trkpt lat="43.24209" lon="1.15573">
        <ele>237.26</ele>
        <time>2018-05-20T15:08:12Z</time>
      </trkpt>
      <trkpt lat="43.24216" lon="1.15584">
        <ele>237.28</ele>
        <time>2018-05-20T15:08:25Z</time>
      </trkpt>
      <trkpt lat="43.2422" lon="1.1559">
        <ele>237.29</ele>
        <time>2018-05-20T15:08:30Z</time>
      </trkpt>
      <trkpt lat="43.24208" lon="1.15608">
        <ele>237.81</ele>
        <time>2018-05-20T15:08:45Z</time>
      </trkpt>
      <trkpt lat="43.24197" lon="1.15624">
        <ele>239</ele>
        <time>2018-05-20T15:08:58Z</time>
      </trkpt>
      <trkpt lat="43.24191" lon="1.15638">
        <ele>239.92</ele>
        <time>2018-05-20T15:09:10Z</time>
      </trkpt>
      <trkpt lat="43.24183" lon="1.15653">
        <ele>240.61</ele>
        <time>2018-05-20T15:09:27Z</time>
      </trkpt>
      <trkpt lat="43.24167" lon="1.15681">
        <ele>241.43</ele>
        <time>2018-05-20T15:09:51Z</time>
      </trkpt>
      <trkpt lat="43.24137" lon="1.15727">
        <ele>241.55</ele>
        <time>2018-05-20T15:10:27Z</time>
      </trkpt>
      <trkpt lat="43.24133" lon="1.15732">
        <ele>241.64</ele>
        <time>2018-05-20T15:10:31Z</time>
      </trkpt>
      <trkpt lat="43.24123" lon="1.15748">
        <ele>242.32</ele>
        <time>2018-05-20T15:10:50Z</time>
      </trkpt>
      <trkpt lat="43.2412" lon="1.15755">
        <ele>243.56</ele>
        <time>2018-05-20T15:11:22Z</time>
      </trkpt>
      <trkpt lat="43.24115" lon="1.1576">
        <ele>243.15</ele>
        <time>2018-05-20T15:11:27Z</time>
      </trkpt>
      <trkpt lat="43.24101" lon="1.1578">
        <ele>242.21</ele>
        <time>2018-05-20T15:11:43Z</time>
      </trkpt>
      <trkpt lat="43.24098" lon="1.15786">
        <ele>242.21</ele>
        <time>2018-05-20T15:11:48Z</time>
      </trkpt>
      <trkpt lat="43.24093" lon="1.15792">
        <ele>242.36</ele>
        <time>2018-05-20T15:11:52Z</time>
      </trkpt>
      <trkpt lat="43.24082" lon="1.15809">
        <ele>242.53</ele>
        <time>2018-05-20T15:12:07Z</time>
      </trkpt>
      <trkpt lat="43.2407" lon="1.15827">
        <ele>242.81</ele>
        <time>2018-05-20T15:12:21Z</time>
      </trkpt>
      <trkpt lat="43.24055" lon="1.15848">
        <ele>243.52</ele>
        <time>2018-05-20T15:12:36Z</time>
      </trkpt>
      <trkpt lat="43.24049" lon="1.15861">
        <ele>243.91</ele>
        <time>2018-05-20T15:12:49Z</time>
      </trkpt>
      <trkpt lat="43.24043" lon="1.15878">
        <ele>244.85</ele>
        <time>2018-05-20T15:13:06Z</time>
      </trkpt>
      <trkpt lat="43.24042" lon="1.15882">
        <ele>245.07</ele>
        <time>2018-05-20T15:13:09Z</time>
      </trkpt>
      <trkpt lat="43.24031" lon="1.15903">
        <ele>248.46</ele>
        <time>2018-05-20T15:13:25Z</time>
      </trkpt>
      <trkpt lat="43.24027" lon="1.15905">
        <ele>249.43</ele>
        <time>2018-05-20T15:13:30Z</time>
      </trkpt>
      <trkpt lat="43.24022" lon="1.15917">
        <ele>250.63</ele>
        <time>2018-05-20T15:13:39Z</time>
      </trkpt>
      <trkpt lat="43.24014" lon="1.15939">
        <ele>251.76</ele>
        <time>2018-05-20T15:13:54Z</time>
      </trkpt>
      <trkpt lat="43.24017" lon="1.15964">
        <ele>252.07</ele>
        <time>2018-05-20T15:14:06Z</time>
      </trkpt>
      <trkpt lat="43.24027" lon="1.16">
        <ele>252.32</ele>
        <time>2018-05-20T15:14:29Z</time>
      </trkpt>
      <trkpt lat="43.24025" lon="1.16013">
        <ele>253.2</ele>
        <time>2018-05-20T15:14:41Z</time>
      </trkpt>
      <trkpt lat="43.24025" lon="1.16032">
        <ele>256.3</ele>
        <time>2018-05-20T15:14:55Z</time>
      </trkpt>
      <trkpt lat="43.24022" lon="1.16045">
        <ele>258.6</ele>
        <time>2018-05-20T15:15:08Z</time>
      </trkpt>
      <trkpt lat="43.24015" lon="1.16069">
        <ele>261.21</ele>
        <time>2018-05-20T15:15:24Z</time>
      </trkpt>
      <trkpt lat="43.24019" lon="1.16078">
        <ele>262.57</ele>
        <time>2018-05-20T15:15:32Z</time>
      </trkpt>
      <trkpt lat="43.24026" lon="1.16092">
        <ele>264.5</ele>
        <time>2018-05-20T15:15:41Z</time>
      </trkpt>
      <trkpt lat="43.2403" lon="1.16109">
        <ele>267.68</ele>
        <time>2018-05-20T15:15:57Z</time>
      </trkpt>
      <trkpt lat="43.24029" lon="1.16113">
        <ele>269.54</ele>
        <time>2018-05-20T15:16:05Z</time>
      </trkpt>
      <trkpt lat="43.24032" lon="1.16117">
        <ele>271.8</ele>
        <time>2018-05-20T15:16:18Z</time>
      </trkpt>
      <trkpt lat="43.24049" lon="1.16129">
        <ele>270.46</ele>
        <time>2018-05-20T15:16:36Z</time>
      </trkpt>
      <trkpt lat="43.24057" lon="1.16139">
        <ele>270.9</ele>
        <time>2018-05-20T15:16:48Z</time>
      </trkpt>
      <trkpt lat="43.24065" lon="1.16148">
        <ele>273.8</ele>
        <time>2018-05-20T15:17:04Z</time>
      </trkpt>
      <trkpt lat="43.24066" lon="1.16158">
        <ele>277.02</ele>
        <time>2018-05-20T15:17:18Z</time>
      </trkpt>
      <trkpt lat="43.24062" lon="1.16168">
        <ele>280.17</ele>
        <time>2018-05-20T15:17:32Z</time>
      </trkpt>
      <trkpt lat="43.24071" lon="1.16191">
        <ele>281.49</ele>
        <time>2018-05-20T15:17:49Z</time>
      </trkpt>
      <trkpt lat="43.24084" lon="1.16211">
        <ele>280.43</ele>
        <time>2018-05-20T15:18:09Z</time>
      </trkpt>
      <trkpt lat="43.24099" lon="1.16236">
        <ele>279.49</ele>
        <time>2018-05-20T15:18:27Z</time>
      </trkpt>
      <trkpt lat="43.24117" lon="1.16254">
        <ele>277.86</ele>
        <time>2018-05-20T15:18:48Z</time>
      </trkpt>
      <trkpt lat="43.24128" lon="1.16267">
        <ele>276.96</ele>
        <time>2018-05-20T15:18:56Z</time>
      </trkpt>
      <trkpt lat="43.24132" lon="1.16275">
        <ele>276.72</ele>
        <time>2018-05-20T15:19:00Z</time>
      </trkpt>
      <trkpt lat="43.24134" lon="1.16281">
        <ele>276.64</ele>
        <time>2018-05-20T15:19:04Z</time>
      </trkpt>
      <trkpt lat="43.24142" lon="1.16294">
        <ele>276.37</ele>
        <time>2018-05-20T15:19:15Z</time>
      </trkpt>
      <trkpt lat="43.24148" lon="1.16301">
        <ele>276.02</ele>
        <time>2018-05-20T15:19:22Z</time>
      </trkpt>
      <trkpt lat="43.2416" lon="1.1631">
        <ele>274.44</ele>
        <time>2018-05-20T15:19:30Z</time>
      </trkpt>
      <trkpt lat="43.2417" lon="1.16338">
        <ele>272.96</ele>
        <time>2018-05-20T15:19:44Z</time>
      </trkpt>
      <trkpt lat="43.2417" lon="1.16343">
        <ele>272.96</ele>
        <time>2018-05-20T15:19:48Z</time>
      </trkpt>
      <trkpt lat="43.24166" lon="1.16355">
        <ele>273.31</ele>
        <time>2018-05-20T15:19:56Z</time>
      </trkpt>
      <trkpt lat="43.24169" lon="1.16385">
        <ele>274.88</ele>
        <time>2018-05-20T15:20:20Z</time>
      </trkpt>
      <trkpt lat="43.24172" lon="1.16392">
        <ele>274.81</ele>
        <time>2018-05-20T15:20:25Z</time>
      </trkpt>
      <trkpt lat="43.24177" lon="1.1641">
        <ele>274.18</ele>
        <time>2018-05-20T15:20:33Z</time>
      </trkpt>
      <trkpt lat="43.24178" lon="1.16412">
        <ele>274.07</ele>
        <time>2018-05-20T15:20:35Z</time>
      </trkpt>
      <trkpt lat="43.24186" lon="1.1642">
        <ele>272.85</ele>
        <time>2018-05-20T15:20:44Z</time>
      </trkpt>
      <trkpt lat="43.24194" lon="1.164">
        <ele>271.24</ele>
        <time>2018-05-20T15:21:00Z</time>
      </trkpt>
      <trkpt lat="43.2419" lon="1.1638">
        <ele>270.35</ele>
        <time>2018-05-20T15:21:13Z</time>
      </trkpt>
      <trkpt lat="43.24209" lon="1.16376">
        <ele>270.33</ele>
        <time>2018-05-20T15:21:30Z</time>
      </trkpt>
      <trkpt lat="43.24223" lon="1.16374">
        <ele>270.69</ele>
        <time>2018-05-20T15:21:41Z</time>
      </trkpt>
      <trkpt lat="43.2425" lon="1.16384">
        <ele>271.33</ele>
        <time>2018-05-20T15:21:58Z</time>
      </trkpt>
      <trkpt lat="43.24267" lon="1.16398">
        <ele>271.64</ele>
        <time>2018-05-20T15:22:13Z</time>
      </trkpt>
      <trkpt lat="43.24291" lon="1.16423">
        <ele>272.35</ele>
        <time>2018-05-20T15:22:31Z</time>
      </trkpt>
      <trkpt lat="43.24302" lon="1.16437">
        <ele>272.86</ele>
        <time>2018-05-20T15:22:40Z</time>
      </trkpt>
      <trkpt lat="43.24303" lon="1.16439">
        <ele>273.01</ele>
        <time>2018-05-20T15:22:43Z</time>
      </trkpt>
      <trkpt lat="43.24316" lon="1.16452">
        <ele>273.34</ele>
        <time>2018-05-20T15:22:52Z</time>
      </trkpt>
      <trkpt lat="43.24317" lon="1.16454">
        <ele>273.36</ele>
        <time>2018-05-20T15:22:53Z</time>
      </trkpt>
      <trkpt lat="43.2432" lon="1.16456">
        <ele>273.37</ele>
        <time>2018-05-20T15:22:55Z</time>
      </trkpt>
      <trkpt lat="43.2432" lon="1.16457">
        <ele>273.39</ele>
        <time>2018-05-20T15:22:56Z</time>
      </trkpt>
      <trkpt lat="43.24325" lon="1.16461">
        <ele>273.45</ele>
        <time>2018-05-20T15:23:00Z</time>
      </trkpt>
      <trkpt lat="43.24329" lon="1.16465">
        <ele>273.48</ele>
        <time>2018-05-20T15:23:03Z</time>
      </trkpt>
      <trkpt lat="43.2433" lon="1.16466">
        <ele>273.48</ele>
        <time>2018-05-20T15:23:04Z</time>
      </trkpt>
      <trkpt lat="43.24331" lon="1.16466">
        <ele>273.49</ele>
        <time>2018-05-20T15:23:05Z</time>
      </trkpt>
      <trkpt lat="43.24348" lon="1.16486">
        <ele>273.51</ele>
        <time>2018-05-20T15:23:20Z</time>
      </trkpt>
      <trkpt lat="43.24361" lon="1.16503">
        <ele>273.67</ele>
        <time>2018-05-20T15:23:35Z</time>
      </trkpt>
      <trkpt lat="43.2436" lon="1.16525">
        <ele>274.39</ele>
        <time>2018-05-20T15:23:53Z</time>
      </trkpt>
      <trkpt lat="43.24366" lon="1.16534">
        <ele>274.59</ele>
        <time>2018-05-20T15:23:59Z</time>
      </trkpt>
      <trkpt lat="43.24374" lon="1.16539">
        <ele>274.69</ele>
        <time>2018-05-20T15:24:04Z</time>
      </trkpt>
      <trkpt lat="43.24375" lon="1.16539">
        <ele>274.7</ele>
        <time>2018-05-20T15:24:05Z</time>
      </trkpt>
      <trkpt lat="43.24397" lon="1.16545">
        <ele>275.47</ele>
        <time>2018-05-20T15:24:21Z</time>
      </trkpt>
      <trkpt lat="43.24401" lon="1.16547">
        <ele>275.59</ele>
        <time>2018-05-20T15:24:25Z</time>
      </trkpt>
      <trkpt lat="43.24409" lon="1.16548">
        <ele>276.3</ele>
        <time>2018-05-20T15:24:32Z</time>
      </trkpt>
      <trkpt lat="43.24422" lon="1.16551">
        <ele>277.71</ele>
        <time>2018-05-20T15:24:45Z</time>
      </trkpt>
      <trkpt lat="43.24443" lon="1.16554">
        <ele>278.72</ele>
        <time>2018-05-20T15:24:57Z</time>
      </trkpt>
      <trkpt lat="43.24457" lon="1.16556">
        <ele>281.01</ele>
        <time>2018-05-20T15:25:09Z</time>
      </trkpt>
      <trkpt lat="43.2447" lon="1.16561">
        <ele>282.38</ele>
        <time>2018-05-20T15:25:20Z</time>
      </trkpt>
      <trkpt lat="43.2449" lon="1.16573">
        <ele>283.02</ele>
        <time>2018-05-20T15:25:33Z</time>
      </trkpt>
      <trkpt lat="43.24503" lon="1.16588">
        <ele>283.86</ele>
        <time>2018-05-20T15:25:49Z</time>
      </trkpt>
      <trkpt lat="43.24528" lon="1.16614">
        <ele>283.68</ele>
        <time>2018-05-20T15:26:10Z</time>
      </trkpt>
      <trkpt lat="43.24528" lon="1.16616">
        <ele>283.68</ele>
        <time>2018-05-20T15:26:11Z</time>
      </trkpt>
      <trkpt lat="43.24543" lon="1.16658">
        <ele>283.41</ele>
        <time>2018-05-20T15:26:36Z</time>
      </trkpt>
      <trkpt lat="43.24558" lon="1.16688">
        <ele>283.73</ele>
        <time>2018-05-20T15:26:59Z</time>
      </trkpt>
      <trkpt lat="43.24586" lon="1.1672">
        <ele>282.86</ele>
        <time>2018-05-20T15:27:23Z</time>
      </trkpt>
      <trkpt lat="43.2459" lon="1.16729">
        <ele>282.44</ele>
        <time>2018-05-20T15:27:29Z</time>
      </trkpt>
      <trkpt lat="43.24594" lon="1.16736">
        <ele>282.25</ele>
        <time>2018-05-20T15:27:33Z</time>
      </trkpt>
      <trkpt lat="43.24607" lon="1.16759">
        <ele>281.56</ele>
        <time>2018-05-20T15:27:47Z</time>
      </trkpt>
      <trkpt lat="43.24618" lon="1.16783">
        <ele>280.84</ele>
        <time>2018-05-20T15:28:02Z</time>
      </trkpt>
      <trkpt lat="43.24636" lon="1.16795">
        <ele>280.07</ele>
        <time>2018-05-20T15:28:19Z</time>
      </trkpt>
      <trkpt lat="43.24638" lon="1.16796">
        <ele>280.05</ele>
        <time>2018-05-20T15:28:20Z</time>
      </trkpt>
      <trkpt lat="43.2464" lon="1.16798">
        <ele>280.02</ele>
        <time>2018-05-20T15:28:22Z</time>
      </trkpt>
      <trkpt lat="43.24649" lon="1.1681">
        <ele>279.82</ele>
        <time>2018-05-20T15:28:30Z</time>
      </trkpt>
      <trkpt lat="43.24656" lon="1.16819">
        <ele>279.59</ele>
        <time>2018-05-20T15:28:36Z</time>
      </trkpt>
      <trkpt lat="43.24659" lon="1.16822">
        <ele>279.59</ele>
        <time>2018-05-20T15:28:39Z</time>
      </trkpt>
      <trkpt lat="43.24666" lon="1.16833">
        <ele>279.63</ele>
        <time>2018-05-20T15:28:47Z</time>
      </trkpt>
      <trkpt lat="43.24668" lon="1.16839">
        <ele>279.65</ele>
        <time>2018-05-20T15:28:51Z</time>
      </trkpt>
      <trkpt lat="43.24687" lon="1.16863">
        <ele>278.39</ele>
        <time>2018-05-20T15:29:09Z</time>
      </trkpt>
      <trkpt lat="43.24709" lon="1.16885">
        <ele>277.3</ele>
        <time>2018-05-20T15:29:27Z</time>
      </trkpt>
      <trkpt lat="43.2471" lon="1.16887">
        <ele>277.29</ele>
        <time>2018-05-20T15:29:28Z</time>
      </trkpt>
      <trkpt lat="43.24725" lon="1.16909">
        <ele>277.25</ele>
        <time>2018-05-20T15:29:44Z</time>
      </trkpt>
      <trkpt lat="43.24737" lon="1.16929">
        <ele>278.47</ele>
        <time>2018-05-20T15:30:02Z</time>
      </trkpt>
      <trkpt lat="43.2476" lon="1.16944">
        <ele>280.35</ele>
        <time>2018-05-20T15:30:18Z</time>
      </trkpt>
      <trkpt lat="43.24774" lon="1.16961">
        <ele>281.04</ele>
        <time>2018-05-20T15:30:35Z</time>
      </trkpt>
      <trkpt lat="43.24808" lon="1.16984">
        <ele>280.07</ele>
        <time>2018-05-20T15:31:01Z</time>
      </trkpt>
      <trkpt lat="43.24828" lon="1.16988">
        <ele>278.79</ele>
        <time>2018-05-20T15:31:18Z</time>
      </trkpt>
      <trkpt lat="43.24842" lon="1.1699">
        <ele>278.12</ele>
        <time>2018-05-20T15:31:34Z</time>
      </trkpt>
      <trkpt lat="43.24845" lon="1.16991">
        <ele>278.06</ele>
        <time>2018-05-20T15:31:37Z</time>
      </trkpt>
      <trkpt lat="43.24853" lon="1.16994">
        <ele>278.01</ele>
        <time>2018-05-20T15:31:42Z</time>
      </trkpt>
      <trkpt lat="43.24871" lon="1.1701">
        <ele>278.66</ele>
        <time>2018-05-20T15:32:00Z</time>
      </trkpt>
      <trkpt lat="43.24893" lon="1.17044">
        <ele>279.37</ele>
        <time>2018-05-20T15:32:24Z</time>
      </trkpt>
      <trkpt lat="43.24913" lon="1.17069">
        <ele>279.5</ele>
        <time>2018-05-20T15:32:42Z</time>
      </trkpt>
      <trkpt lat="43.24919" lon="1.17088">
        <ele>279.23</ele>
        <time>2018-05-20T15:32:55Z</time>
      </trkpt>
      <trkpt lat="43.24928" lon="1.17113">
        <ele>277.73</ele>
        <time>2018-05-20T15:33:14Z</time>
      </trkpt>
      <trkpt lat="43.24932" lon="1.17117">
        <ele>277.52</ele>
        <time>2018-05-20T15:33:17Z</time>
      </trkpt>
      <trkpt lat="43.2494" lon="1.17126">
        <ele>277.19</ele>
        <time>2018-05-20T15:33:23Z</time>
      </trkpt>
      <trkpt lat="43.24945" lon="1.17132">
        <ele>276.81</ele>
        <time>2018-05-20T15:33:27Z</time>
      </trkpt>
      <trkpt lat="43.24961" lon="1.17149">
        <ele>276.1</ele>
        <time>2018-05-20T15:33:42Z</time>
      </trkpt>
      <trkpt lat="43.24981" lon="1.17171">
        <ele>275.75</ele>
        <time>2018-05-20T15:33:58Z</time>
      </trkpt>
      <trkpt lat="43.24981" lon="1.17175">
        <ele>275.71</ele>
        <time>2018-05-20T15:34:01Z</time>
      </trkpt>
      <trkpt lat="43.24982" lon="1.17206">
        <ele>274.65</ele>
        <time>2018-05-20T15:34:18Z</time>
      </trkpt>
      <trkpt lat="43.24985" lon="1.17237">
        <ele>271.93</ele>
        <time>2018-05-20T15:34:35Z</time>
      </trkpt>
      <trkpt lat="43.24997" lon="1.17264">
        <ele>270.71</ele>
        <time>2018-05-20T15:34:50Z</time>
      </trkpt>
      <trkpt lat="43.25005" lon="1.17285">
        <ele>269.5</ele>
        <time>2018-05-20T15:35:03Z</time>
      </trkpt>
      <trkpt lat="43.25018" lon="1.17316">
        <ele>267.73</ele>
        <time>2018-05-20T15:35:21Z</time>
      </trkpt>
      <trkpt lat="43.25025" lon="1.17336">
        <ele>265.74</ele>
        <time>2018-05-20T15:35:35Z</time>
      </trkpt>
      <trkpt lat="43.25027" lon="1.1734">
        <ele>265.4</ele>
        <time>2018-05-20T15:35:38Z</time>
      </trkpt>
      <trkpt lat="43.25047" lon="1.1736">
        <ele>263.82</ele>
        <time>2018-05-20T15:35:56Z</time>
      </trkpt>
      <trkpt lat="43.25062" lon="1.17378">
        <ele>262.66</ele>
        <time>2018-05-20T15:36:10Z</time>
      </trkpt>
      <trkpt lat="43.25067" lon="1.17388">
        <ele>262.22</ele>
        <time>2018-05-20T15:36:17Z</time>
      </trkpt>
      <trkpt lat="43.2509" lon="1.17406">
        <ele>261.77</ele>
        <time>2018-05-20T15:36:32Z</time>
      </trkpt>
      <trkpt lat="43.25096" lon="1.17419">
        <ele>261.3</ele>
        <time>2018-05-20T15:36:43Z</time>
      </trkpt>
      <trkpt lat="43.25104" lon="1.17429">
        <ele>260.98</ele>
        <time>2018-05-20T15:36:51Z</time>
      </trkpt>
      <trkpt lat="43.25111" lon="1.17435">
        <ele>260.88</ele>
        <time>2018-05-20T15:36:55Z</time>
      </trkpt>
      <trkpt lat="43.2512" lon="1.17441">
        <ele>260.67</ele>
        <time>2018-05-20T15:37:00Z</time>
      </trkpt>
      <trkpt lat="43.25132" lon="1.17454">
        <ele>260.19</ele>
        <time>2018-05-20T15:37:13Z</time>
      </trkpt>
      <trkpt lat="43.25135" lon="1.17461">
        <ele>259.88</ele>
        <time>2018-05-20T15:37:20Z</time>
      </trkpt>
      <trkpt lat="43.25164" lon="1.17486">
        <ele>258.97</ele>
        <time>2018-05-20T15:37:41Z</time>
      </trkpt>
      <trkpt lat="43.2517" lon="1.17492">
        <ele>258.83</ele>
        <time>2018-05-20T15:37:47Z</time>
      </trkpt>
      <trkpt lat="43.25178" lon="1.17496">
        <ele>258.74</ele>
        <time>2018-05-20T15:37:52Z</time>
      </trkpt>
      <trkpt lat="43.2519" lon="1.1751">
        <ele>258.37</ele>
        <time>2018-05-20T15:38:03Z</time>
      </trkpt>
      <trkpt lat="43.25191" lon="1.17512">
        <ele>258.34</ele>
        <time>2018-05-20T15:38:04Z</time>
      </trkpt>
      <trkpt lat="43.25192" lon="1.17513">
        <ele>258.29</ele>
        <time>2018-05-20T15:38:05Z</time>
      </trkpt>
      <trkpt lat="43.25193" lon="1.17514">
        <ele>258.24</ele>
        <time>2018-05-20T15:38:06Z</time>
      </trkpt>
      <trkpt lat="43.25194" lon="1.17515">
        <ele>258.21</ele>
        <time>2018-05-20T15:38:07Z</time>
      </trkpt>
      <trkpt lat="43.25196" lon="1.17516">
        <ele>258.19</ele>
        <time>2018-05-20T15:38:08Z</time>
      </trkpt>
      <trkpt lat="43.25209" lon="1.17526">
        <ele>257.94</ele>
        <time>2018-05-20T15:38:20Z</time>
      </trkpt>
      <trkpt lat="43.2521" lon="1.17527">
        <ele>257.94</ele>
        <time>2018-05-20T15:38:21Z</time>
      </trkpt>
      <trkpt lat="43.25211" lon="1.17529">
        <ele>257.93</ele>
        <time>2018-05-20T15:38:22Z</time>
      </trkpt>
      <trkpt lat="43.25226" lon="1.17541">
        <ele>257.71</ele>
        <time>2018-05-20T15:38:34Z</time>
      </trkpt>
      <trkpt lat="43.25235" lon="1.17547">
        <ele>257.37</ele>
        <time>2018-05-20T15:38:46Z</time>
      </trkpt>
      <trkpt lat="43.2524" lon="1.1755">
        <ele>257.28</ele>
        <time>2018-05-20T15:38:53Z</time>
      </trkpt>
      <trkpt lat="43.25241" lon="1.1755">
        <ele>257.28</ele>
        <time>2018-05-20T15:38:54Z</time>
      </trkpt>
      <trkpt lat="43.25243" lon="1.17552">
        <ele>257.28</ele>
        <time>2018-05-20T15:38:56Z</time>
      </trkpt>
      <trkpt lat="43.25261" lon="1.17567">
        <ele>257.35</ele>
        <time>2018-05-20T15:39:13Z</time>
      </trkpt>
      <trkpt lat="43.25273" lon="1.17585">
        <ele>257.19</ele>
        <time>2018-05-20T15:39:28Z</time>
      </trkpt>
      <trkpt lat="43.25278" lon="1.17594">
        <ele>257.03</ele>
        <time>2018-05-20T15:39:34Z</time>
      </trkpt>
      <trkpt lat="43.2528" lon="1.17595">
        <ele>257.01</ele>
        <time>2018-05-20T15:39:35Z</time>
      </trkpt>
      <trkpt lat="43.25282" lon="1.17597">
        <ele>256.97</ele>
        <time>2018-05-20T15:39:37Z</time>
      </trkpt>
      <trkpt lat="43.25282" lon="1.17598">
        <ele>256.95</ele>
        <time>2018-05-20T15:39:38Z</time>
      </trkpt>
      <trkpt lat="43.25282" lon="1.176">
        <ele>256.94</ele>
        <time>2018-05-20T15:39:39Z</time>
      </trkpt>
      <trkpt lat="43.25282" lon="1.17602">
        <ele>256.93</ele>
        <time>2018-05-20T15:39:40Z</time>
      </trkpt>
      <trkpt lat="43.25291" lon="1.17622">
        <ele>256.79</ele>
        <time>2018-05-20T15:39:51Z</time>
      </trkpt>
      <trkpt lat="43.25292" lon="1.17623">
        <ele>256.75</ele>
        <time>2018-05-20T15:39:52Z</time>
      </trkpt>
      <trkpt lat="43.25293" lon="1.17625">
        <ele>256.7</ele>
        <time>2018-05-20T15:39:53Z</time>
      </trkpt>
      <trkpt lat="43.25294" lon="1.17627">
        <ele>256.67</ele>
        <time>2018-05-20T15:39:54Z</time>
      </trkpt>
      <trkpt lat="43.25295" lon="1.17629">
        <ele>256.64</ele>
        <time>2018-05-20T15:39:55Z</time>
      </trkpt>
      <trkpt lat="43.25296" lon="1.17631">
        <ele>256.58</ele>
        <time>2018-05-20T15:39:56Z</time>
      </trkpt>
      <trkpt lat="43.25316" lon="1.17657">
        <ele>256.29</ele>
        <time>2018-05-20T15:40:13Z</time>
      </trkpt>
      <trkpt lat="43.25331" lon="1.17679">
        <ele>255.88</ele>
        <time>2018-05-20T15:40:27Z</time>
      </trkpt>
      <trkpt lat="43.25341" lon="1.17699">
        <ele>255.53</ele>
        <time>2018-05-20T15:40:40Z</time>
      </trkpt>
      <trkpt lat="43.25349" lon="1.17718">
        <ele>255.17</ele>
        <time>2018-05-20T15:40:54Z</time>
      </trkpt>
      <trkpt lat="43.25358" lon="1.1774">
        <ele>255.08</ele>
        <time>2018-05-20T15:41:09Z</time>
      </trkpt>
      <trkpt lat="43.25372" lon="1.17767">
        <ele>254.72</ele>
        <time>2018-05-20T15:41:27Z</time>
      </trkpt>
      <trkpt lat="43.25385" lon="1.17787">
        <ele>254.4</ele>
        <time>2018-05-20T15:41:42Z</time>
      </trkpt>
      <trkpt lat="43.25395" lon="1.17812">
        <ele>253.66</ele>
        <time>2018-05-20T15:41:59Z</time>
      </trkpt>
      <trkpt lat="43.2541" lon="1.17838">
        <ele>253.4</ele>
        <time>2018-05-20T15:42:17Z</time>
      </trkpt>
      <trkpt lat="43.25427" lon="1.17859">
        <ele>253.3</ele>
        <time>2018-05-20T15:42:34Z</time>
      </trkpt>
      <trkpt lat="43.25443" lon="1.17889">
        <ele>252.77</ele>
        <time>2018-05-20T15:42:52Z</time>
      </trkpt>
      <trkpt lat="43.25453" lon="1.17912">
        <ele>252.75</ele>
        <time>2018-05-20T15:43:09Z</time>
      </trkpt>
      <trkpt lat="43.25468" lon="1.17934">
        <ele>252.44</ele>
        <time>2018-05-20T15:43:25Z</time>
      </trkpt>
      <trkpt lat="43.25484" lon="1.17953">
        <ele>252.22</ele>
        <time>2018-05-20T15:43:38Z</time>
      </trkpt>
      <trkpt lat="43.25499" lon="1.17977">
        <ele>251.98</ele>
        <time>2018-05-20T15:43:54Z</time>
      </trkpt>
      <trkpt lat="43.25515" lon="1.18006">
        <ele>251.79</ele>
        <time>2018-05-20T15:44:12Z</time>
      </trkpt>
      <trkpt lat="43.25532" lon="1.18035">
        <ele>251.69</ele>
        <time>2018-05-20T15:44:31Z</time>
      </trkpt>
      <trkpt lat="43.25547" lon="1.1806">
        <ele>251.54</ele>
        <time>2018-05-20T15:44:47Z</time>
      </trkpt>
      <trkpt lat="43.25559" lon="1.18079">
        <ele>251.54</ele>
        <time>2018-05-20T15:45:02Z</time>
      </trkpt>
      <trkpt lat="43.25576" lon="1.18107">
        <ele>251.41</ele>
        <time>2018-05-20T15:45:19Z</time>
      </trkpt>
      <trkpt lat="43.25583" lon="1.18116">
        <ele>251.48</ele>
        <time>2018-05-20T15:45:26Z</time>
      </trkpt>
      <trkpt lat="43.25584" lon="1.18117">
        <ele>251.5</ele>
        <time>2018-05-20T15:45:27Z</time>
      </trkpt>
      <trkpt lat="43.25585" lon="1.18118">
        <ele>251.52</ele>
        <time>2018-05-20T15:45:28Z</time>
      </trkpt>
      <trkpt lat="43.25586" lon="1.1812">
        <ele>251.54</ele>
        <time>2018-05-20T15:45:29Z</time>
      </trkpt>
      <trkpt lat="43.25587" lon="1.18121">
        <ele>251.55</ele>
        <time>2018-05-20T15:45:30Z</time>
      </trkpt>
      <trkpt lat="43.25588" lon="1.18123">
        <ele>251.55</ele>
        <time>2018-05-20T15:45:31Z</time>
      </trkpt>
      <trkpt lat="43.25589" lon="1.18124">
        <ele>251.55</ele>
        <time>2018-05-20T15:45:32Z</time>
      </trkpt>
      <trkpt lat="43.2559" lon="1.18125">
        <ele>251.55</ele>
        <time>2018-05-20T15:45:33Z</time>
      </trkpt>
      <trkpt lat="43.25591" lon="1.18126">
        <ele>251.55</ele>
        <time>2018-05-20T15:45:34Z</time>
      </trkpt>
      <trkpt lat="43.25609" lon="1.18142">
        <ele>251.35</ele>
        <time>2018-05-20T15:45:48Z</time>
      </trkpt>
      <trkpt lat="43.2563" lon="1.18159">
        <ele>250.96</ele>
        <time>2018-05-20T15:46:07Z</time>
      </trkpt>
      <trkpt lat="43.25652" lon="1.18171">
        <ele>250.87</ele>
        <time>2018-05-20T15:46:26Z</time>
      </trkpt>
      <trkpt lat="43.25672" lon="1.18184">
        <ele>250.8</ele>
        <time>2018-05-20T15:46:42Z</time>
      </trkpt>
      <trkpt lat="43.25691" lon="1.18197">
        <ele>250.43</ele>
        <time>2018-05-20T15:46:58Z</time>
      </trkpt>
      <trkpt lat="43.25701" lon="1.18218">
        <ele>249.2</ele>
        <time>2018-05-20T15:47:13Z</time>
      </trkpt>
      <trkpt lat="43.25704" lon="1.18226">
        <ele>248.98</ele>
        <time>2018-05-20T15:47:30Z</time>
      </trkpt>
      <trkpt lat="43.25703" lon="1.18229">
        <ele>248.98</ele>
        <time>2018-05-20T15:47:32Z</time>
      </trkpt>
      <trkpt lat="43.25703" lon="1.18231">
        <ele>248.98</ele>
        <time>2018-05-20T15:47:33Z</time>
      </trkpt>
      <trkpt lat="43.25703" lon="1.18232">
        <ele>248.98</ele>
        <time>2018-05-20T15:47:34Z</time>
      </trkpt>
      <trkpt lat="43.25702" lon="1.18234">
        <ele>248.98</ele>
        <time>2018-05-20T15:47:35Z</time>
      </trkpt>
      <trkpt lat="43.25704" lon="1.18265">
        <ele>248.69</ele>
        <time>2018-05-20T15:47:53Z</time>
      </trkpt>
      <trkpt lat="43.25707" lon="1.18295">
        <ele>248.49</ele>
        <time>2018-05-20T15:48:09Z</time>
      </trkpt>
      <trkpt lat="43.25707" lon="1.18324">
        <ele>248.18</ele>
        <time>2018-05-20T15:48:24Z</time>
      </trkpt>
      <trkpt lat="43.25708" lon="1.18346">
        <ele>248.19</ele>
        <time>2018-05-20T15:48:37Z</time>
      </trkpt>
      <trkpt lat="43.25708" lon="1.18376">
        <ele>248</ele>
        <time>2018-05-20T15:48:53Z</time>
      </trkpt>
      <trkpt lat="43.25711" lon="1.18402">
        <ele>247.76</ele>
        <time>2018-05-20T15:49:08Z</time>
      </trkpt>
      <trkpt lat="43.25714" lon="1.18434">
        <ele>247.62</ele>
        <time>2018-05-20T15:49:26Z</time>
      </trkpt>
      <trkpt lat="43.2572" lon="1.18463">
        <ele>247.3</ele>
        <time>2018-05-20T15:49:43Z</time>
      </trkpt>
      <trkpt lat="43.25724" lon="1.18478">
        <ele>247.13</ele>
        <time>2018-05-20T15:49:52Z</time>
      </trkpt>
      <trkpt lat="43.25725" lon="1.18479">
        <ele>247.11</ele>
        <time>2018-05-20T15:49:53Z</time>
      </trkpt>
      <trkpt lat="43.25726" lon="1.18481">
        <ele>247.04</ele>
        <time>2018-05-20T15:49:54Z</time>
      </trkpt>
      <trkpt lat="43.25726" lon="1.18482">
        <ele>247.01</ele>
        <time>2018-05-20T15:49:55Z</time>
      </trkpt>
      <trkpt lat="43.25727" lon="1.18484">
        <ele>246.97</ele>
        <time>2018-05-20T15:49:56Z</time>
      </trkpt>
      <trkpt lat="43.25737" lon="1.18514">
        <ele>246.69</ele>
        <time>2018-05-20T15:50:14Z</time>
      </trkpt>
      <trkpt lat="43.25744" lon="1.1854">
        <ele>246.7</ele>
        <time>2018-05-20T15:50:31Z</time>
      </trkpt>
      <trkpt lat="43.25747" lon="1.18573">
        <ele>246.75</ele>
        <time>2018-05-20T15:50:49Z</time>
      </trkpt>
      <trkpt lat="43.25756" lon="1.18603">
        <ele>246.78</ele>
        <time>2018-05-20T15:51:07Z</time>
      </trkpt>
      <trkpt lat="43.25761" lon="1.18633">
        <ele>246.59</ele>
        <time>2018-05-20T15:51:24Z</time>
      </trkpt>
      <trkpt lat="43.25764" lon="1.18655">
        <ele>246.19</ele>
        <time>2018-05-20T15:51:37Z</time>
      </trkpt>
      <trkpt lat="43.25769" lon="1.1869">
        <ele>245.6</ele>
        <time>2018-05-20T15:51:55Z</time>
      </trkpt>
      <trkpt lat="43.25771" lon="1.18723">
        <ele>245.01</ele>
        <time>2018-05-20T15:52:13Z</time>
      </trkpt>
      <trkpt lat="43.25773" lon="1.18752">
        <ele>244.52</ele>
        <time>2018-05-20T15:52:31Z</time>
      </trkpt>
      <trkpt lat="43.25775" lon="1.18784">
        <ele>244.04</ele>
        <time>2018-05-20T15:52:49Z</time>
      </trkpt>
      <trkpt lat="43.25777" lon="1.18801">
        <ele>243.8</ele>
        <time>2018-05-20T15:52:59Z</time>
      </trkpt>
      <trkpt lat="43.25782" lon="1.18833">
        <ele>243.4</ele>
        <time>2018-05-20T15:53:16Z</time>
      </trkpt>
      <trkpt lat="43.25786" lon="1.18857">
        <ele>242.85</ele>
        <time>2018-05-20T15:53:32Z</time>
      </trkpt>
      <trkpt lat="43.25787" lon="1.18861">
        <ele>242.67</ele>
        <time>2018-05-20T15:53:36Z</time>
      </trkpt>
      <trkpt lat="43.25788" lon="1.18863">
        <ele>242.63</ele>
        <time>2018-05-20T15:53:37Z</time>
      </trkpt>
      <trkpt lat="43.25788" lon="1.18865">
        <ele>242.61</ele>
        <time>2018-05-20T15:53:38Z</time>
      </trkpt>
      <trkpt lat="43.25788" lon="1.18867">
        <ele>242.58</ele>
        <time>2018-05-20T15:53:39Z</time>
      </trkpt>
      <trkpt lat="43.25788" lon="1.18868">
        <ele>242.56</ele>
        <time>2018-05-20T15:53:40Z</time>
      </trkpt>
      <trkpt lat="43.25788" lon="1.1887">
        <ele>242.55</ele>
        <time>2018-05-20T15:53:41Z</time>
      </trkpt>
      <trkpt lat="43.25789" lon="1.18871">
        <ele>242.54</ele>
        <time>2018-05-20T15:53:42Z</time>
      </trkpt>
      <trkpt lat="43.25789" lon="1.18873">
        <ele>242.54</ele>
        <time>2018-05-20T15:53:43Z</time>
      </trkpt>
      <trkpt lat="43.25789" lon="1.18875">
        <ele>242.54</ele>
        <time>2018-05-20T15:53:44Z</time>
      </trkpt>
      <trkpt lat="43.25789" lon="1.18877">
        <ele>242.53</ele>
        <time>2018-05-20T15:53:45Z</time>
      </trkpt>
      <trkpt lat="43.25789" lon="1.18879">
        <ele>242.52</ele>
        <time>2018-05-20T15:53:46Z</time>
      </trkpt>
      <trkpt lat="43.25794" lon="1.18905">
        <ele>242.23</ele>
        <time>2018-05-20T15:54:01Z</time>
      </trkpt>
      <trkpt lat="43.25799" lon="1.18932">
        <ele>241.62</ele>
        <time>2018-05-20T15:54:15Z</time>
      </trkpt>
      <trkpt lat="43.25803" lon="1.18957">
        <ele>240.33</ele>
        <time>2018-05-20T15:54:30Z</time>
      </trkpt>
      <trkpt lat="43.25813" lon="1.18982">
        <ele>239.2</ele>
        <time>2018-05-20T15:54:46Z</time>
      </trkpt>
      <trkpt lat="43.2582" lon="1.18999">
        <ele>238.4</ele>
        <time>2018-05-20T15:54:58Z</time>
      </trkpt>
      <trkpt lat="43.25821" lon="1.19001">
        <ele>238.37</ele>
        <time>2018-05-20T15:54:59Z</time>
      </trkpt>
      <trkpt lat="43.25822" lon="1.19006">
        <ele>237.88</ele>
        <time>2018-05-20T15:55:03Z</time>
      </trkpt>
      <trkpt lat="43.25829" lon="1.19018">
        <ele>237.29</ele>
        <time>2018-05-20T15:55:11Z</time>
      </trkpt>
      <trkpt lat="43.25829" lon="1.19019">
        <ele>237.21</ele>
        <time>2018-05-20T15:55:12Z</time>
      </trkpt>
      <trkpt lat="43.25836" lon="1.19066">
        <ele>236.43</ele>
        <time>2018-05-20T15:55:38Z</time>
      </trkpt>
      <trkpt lat="43.25836" lon="1.19069">
        <ele>236.28</ele>
        <time>2018-05-20T15:55:40Z</time>
      </trkpt>
      <trkpt lat="43.25836" lon="1.19074">
        <ele>236.19</ele>
        <time>2018-05-20T15:55:42Z</time>
      </trkpt>
      <trkpt lat="43.25836" lon="1.19076">
        <ele>236.15</ele>
        <time>2018-05-20T15:55:43Z</time>
      </trkpt>
      <trkpt lat="43.25834" lon="1.19092">
        <ele>235.73</ele>
        <time>2018-05-20T15:55:52Z</time>
      </trkpt>
      <trkpt lat="43.25834" lon="1.19094">
        <ele>235.68</ele>
        <time>2018-05-20T15:55:53Z</time>
      </trkpt>
      <trkpt lat="43.25834" lon="1.19095">
        <ele>235.6</ele>
        <time>2018-05-20T15:55:54Z</time>
      </trkpt>
      <trkpt lat="43.25834" lon="1.19103">
        <ele>235.39</ele>
        <time>2018-05-20T15:55:58Z</time>
      </trkpt>
      <trkpt lat="43.25834" lon="1.19105">
        <ele>235.35</ele>
        <time>2018-05-20T15:55:59Z</time>
      </trkpt>
      <trkpt lat="43.25834" lon="1.19107">
        <ele>235.28</ele>
        <time>2018-05-20T15:56:00Z</time>
      </trkpt>
      <trkpt lat="43.25834" lon="1.19109">
        <ele>235.18</ele>
        <time>2018-05-20T15:56:01Z</time>
      </trkpt>
      <trkpt lat="43.25834" lon="1.19111">
        <ele>235.13</ele>
        <time>2018-05-20T15:56:02Z</time>
      </trkpt>
      <trkpt lat="43.25834" lon="1.19113">
        <ele>235.04</ele>
        <time>2018-05-20T15:56:03Z</time>
      </trkpt>
      <trkpt lat="43.25835" lon="1.19114">
        <ele>234.99</ele>
        <time>2018-05-20T15:56:04Z</time>
      </trkpt>
      <trkpt lat="43.25834" lon="1.19119">
        <ele>234.85</ele>
        <time>2018-05-20T15:56:07Z</time>
      </trkpt>
      <trkpt lat="43.25834" lon="1.1912">
        <ele>234.78</ele>
        <time>2018-05-20T15:56:08Z</time>
      </trkpt>
      <trkpt lat="43.25833" lon="1.19122">
        <ele>234.68</ele>
        <time>2018-05-20T15:56:09Z</time>
      </trkpt>
      <trkpt lat="43.25833" lon="1.19125">
        <ele>234.58</ele>
        <time>2018-05-20T15:56:10Z</time>
      </trkpt>
      <trkpt lat="43.25833" lon="1.19127">
        <ele>234.48</ele>
        <time>2018-05-20T15:56:11Z</time>
      </trkpt>
      <trkpt lat="43.25834" lon="1.1913">
        <ele>234.43</ele>
        <time>2018-05-20T15:56:12Z</time>
      </trkpt>
      <trkpt lat="43.25827" lon="1.19154">
        <ele>233.72</ele>
        <time>2018-05-20T15:56:26Z</time>
      </trkpt>
      <trkpt lat="43.25825" lon="1.19176">
        <ele>233.43</ele>
        <time>2018-05-20T15:56:39Z</time>
      </trkpt>
      <trkpt lat="43.25822" lon="1.19188">
        <ele>232.71</ele>
        <time>2018-05-20T15:56:47Z</time>
      </trkpt>
      <trkpt lat="43.25821" lon="1.19194">
        <ele>232.54</ele>
        <time>2018-05-20T15:56:50Z</time>
      </trkpt>
      <trkpt lat="43.25815" lon="1.19218">
        <ele>232.35</ele>
        <time>2018-05-20T15:57:03Z</time>
      </trkpt>
      <trkpt lat="43.25814" lon="1.19222">
        <ele>232.33</ele>
        <time>2018-05-20T15:57:05Z</time>
      </trkpt>
      <trkpt lat="43.25814" lon="1.19224">
        <ele>232.32</ele>
        <time>2018-05-20T15:57:06Z</time>
      </trkpt>
      <trkpt lat="43.25813" lon="1.19229">
        <ele>232.14</ele>
        <time>2018-05-20T15:57:10Z</time>
      </trkpt>
      <trkpt lat="43.25813" lon="1.1923">
        <ele>232.13</ele>
        <time>2018-05-20T15:57:11Z</time>
      </trkpt>
      <trkpt lat="43.25813" lon="1.19231">
        <ele>232.11</ele>
        <time>2018-05-20T15:57:12Z</time>
      </trkpt>
      <trkpt lat="43.25812" lon="1.19246">
        <ele>231.98</ele>
        <time>2018-05-20T15:57:23Z</time>
      </trkpt>
      <trkpt lat="43.25835" lon="1.19275">
        <ele>231.83</ele>
        <time>2018-05-20T15:57:47Z</time>
      </trkpt>
      <trkpt lat="43.25835" lon="1.19277">
        <ele>231.83</ele>
        <time>2018-05-20T15:57:48Z</time>
      </trkpt>
      <trkpt lat="43.25837" lon="1.19278">
        <ele>231.83</ele>
        <time>2018-05-20T15:57:49Z</time>
      </trkpt>
      <trkpt lat="43.25837" lon="1.19279">
        <ele>231.8</ele>
        <time>2018-05-20T15:57:50Z</time>
      </trkpt>
      <trkpt lat="43.25837" lon="1.19281">
        <ele>231.77</ele>
        <time>2018-05-20T15:57:51Z</time>
      </trkpt>
      <trkpt lat="43.25836" lon="1.19283">
        <ele>231.73</ele>
        <time>2018-05-20T15:57:52Z</time>
      </trkpt>
      <trkpt lat="43.25835" lon="1.19285">
        <ele>231.7</ele>
        <time>2018-05-20T15:57:53Z</time>
      </trkpt>
      <trkpt lat="43.25832" lon="1.19288">
        <ele>231.66</ele>
        <time>2018-05-20T15:57:55Z</time>
      </trkpt>
      <trkpt lat="43.25831" lon="1.1929">
        <ele>231.63</ele>
        <time>2018-05-20T15:57:56Z</time>
      </trkpt>
      <trkpt lat="43.25829" lon="1.19295">
        <ele>231.57</ele>
        <time>2018-05-20T15:57:58Z</time>
      </trkpt>
      <trkpt lat="43.2582" lon="1.19303">
        <ele>231.48</ele>
        <time>2018-05-20T15:58:03Z</time>
      </trkpt>
      <trkpt lat="43.25819" lon="1.19305">
        <ele>231.45</ele>
        <time>2018-05-20T15:58:04Z</time>
      </trkpt>
      <trkpt lat="43.25819" lon="1.19323">
        <ele>231.06</ele>
        <time>2018-05-20T15:58:18Z</time>
      </trkpt>
      <trkpt lat="43.25823" lon="1.19355">
        <ele>230.83</ele>
        <time>2018-05-20T15:58:34Z</time>
      </trkpt>
      <trkpt lat="43.25824" lon="1.19374">
        <ele>230.6</ele>
        <time>2018-05-20T15:58:44Z</time>
      </trkpt>
      <trkpt lat="43.25824" lon="1.19376">
        <ele>230.57</ele>
        <time>2018-05-20T15:58:45Z</time>
      </trkpt>
      <trkpt lat="43.25824" lon="1.19379">
        <ele>230.45</ele>
        <time>2018-05-20T15:58:47Z</time>
      </trkpt>
      <trkpt lat="43.25825" lon="1.19379">
        <ele>230.41</ele>
        <time>2018-05-20T15:58:48Z</time>
      </trkpt>
      <trkpt lat="43.25825" lon="1.1938">
        <ele>230.39</ele>
        <time>2018-05-20T15:58:49Z</time>
      </trkpt>
      <trkpt lat="43.25823" lon="1.19403">
        <ele>230.13</ele>
        <time>2018-05-20T15:59:04Z</time>
      </trkpt>
      <trkpt lat="43.25823" lon="1.19416">
        <ele>229.74</ele>
        <time>2018-05-20T15:59:13Z</time>
      </trkpt>
      <trkpt lat="43.25823" lon="1.19417">
        <ele>229.72</ele>
        <time>2018-05-20T15:59:14Z</time>
      </trkpt>
      <trkpt lat="43.25822" lon="1.19419">
        <ele>229.71</ele>
        <time>2018-05-20T15:59:15Z</time>
      </trkpt>
      <trkpt lat="43.25822" lon="1.19421">
        <ele>229.71</ele>
        <time>2018-05-20T15:59:16Z</time>
      </trkpt>
      <trkpt lat="43.25822" lon="1.19423">
        <ele>229.7</ele>
        <time>2018-05-20T15:59:17Z</time>
      </trkpt>
      <trkpt lat="43.25822" lon="1.19425">
        <ele>229.69</ele>
        <time>2018-05-20T15:59:18Z</time>
      </trkpt>
      <trkpt lat="43.25819" lon="1.1945">
        <ele>229.46</ele>
        <time>2018-05-20T15:59:32Z</time>
      </trkpt>
      <trkpt lat="43.25818" lon="1.19451">
        <ele>229.46</ele>
        <time>2018-05-20T15:59:33Z</time>
      </trkpt>
      <trkpt lat="43.25816" lon="1.19453">
        <ele>229.46</ele>
        <time>2018-05-20T15:59:36Z</time>
      </trkpt>
      <trkpt lat="43.25818" lon="1.19457">
        <ele>229.46</ele>
        <time>2018-05-20T15:59:37Z</time>
      </trkpt>
      <trkpt lat="43.25819" lon="1.19459">
        <ele>229.46</ele>
        <time>2018-05-20T15:59:38Z</time>
      </trkpt>
      <trkpt lat="43.25819" lon="1.1946">
        <ele>229.46</ele>
        <time>2018-05-20T15:59:39Z</time>
      </trkpt>
      <trkpt lat="43.2582" lon="1.19461">
        <ele>229.46</ele>
        <time>2018-05-20T15:59:40Z</time>
      </trkpt>
      <trkpt lat="43.25821" lon="1.19464">
        <ele>229.46</ele>
        <time>2018-05-20T15:59:41Z</time>
      </trkpt>
      <trkpt lat="43.25821" lon="1.19464">
        <ele>229.46</ele>
        <time>2018-05-20T15:59:42Z</time>
      </trkpt>
      <trkpt lat="43.25821" lon="1.19466">
        <ele>229.46</ele>
        <time>2018-05-20T15:59:43Z</time>
      </trkpt>
      <trkpt lat="43.2582" lon="1.19468">
        <ele>229.46</ele>
        <time>2018-05-20T15:59:44Z</time>
      </trkpt>
      <trkpt lat="43.25821" lon="1.19472">
        <ele>229.46</ele>
        <time>2018-05-20T15:59:45Z</time>
      </trkpt>
      <trkpt lat="43.2582" lon="1.19473">
        <ele>229.46</ele>
        <time>2018-05-20T15:59:46Z</time>
      </trkpt>
      <trkpt lat="43.25816" lon="1.19472">
        <ele>229.49</ele>
        <time>2018-05-20T15:59:49Z</time>
      </trkpt>
      <trkpt lat="43.25815" lon="1.19472">
        <ele>229.5</ele>
        <time>2018-05-20T15:59:50Z</time>
      </trkpt>
      <trkpt lat="43.25812" lon="1.1947">
        <ele>229.58</ele>
        <time>2018-05-20T15:59:52Z</time>
      </trkpt>
      <trkpt lat="43.25811" lon="1.19469">
        <ele>229.62</ele>
        <time>2018-05-20T15:59:53Z</time>
      </trkpt>
      <trkpt lat="43.2577" lon="1.19449">
        <ele>231.19</ele>
        <time>2018-05-20T16:00:11Z</time>
      </trkpt>
      <trkpt lat="43.25756" lon="1.19456">
        <ele>231.68</ele>
        <time>2018-05-20T16:00:27Z</time>
      </trkpt>
      <trkpt lat="43.25757" lon="1.19461">
        <ele>231.69</ele>
        <time>2018-05-20T16:00:29Z</time>
      </trkpt>
      <trkpt lat="43.25756" lon="1.19463">
        <ele>231.69</ele>
        <time>2018-05-20T16:00:30Z</time>
      </trkpt>
      <trkpt lat="43.25756" lon="1.19466">
        <ele>231.69</ele>
        <time>2018-05-20T16:00:31Z</time>
      </trkpt>
      <trkpt lat="43.25749" lon="1.19484">
        <ele>231.98</ele>
        <time>2018-05-20T16:00:44Z</time>
      </trkpt>
      <trkpt lat="43.25746" lon="1.19504">
        <ele>232.01</ele>
        <time>2018-05-20T16:00:58Z</time>
      </trkpt>
      <trkpt lat="43.25739" lon="1.19526">
        <ele>232.62</ele>
        <time>2018-05-20T16:01:15Z</time>
      </trkpt>
      <trkpt lat="43.25734" lon="1.19559">
        <ele>232.82</ele>
        <time>2018-05-20T16:01:32Z</time>
      </trkpt>
      <trkpt lat="43.2573" lon="1.19589">
        <ele>233.21</ele>
        <time>2018-05-20T16:01:47Z</time>
      </trkpt>
      <trkpt lat="43.25727" lon="1.19596">
        <ele>233.26</ele>
        <time>2018-05-20T16:01:52Z</time>
      </trkpt>
      <trkpt lat="43.25722" lon="1.19621">
        <ele>233.57</ele>
        <time>2018-05-20T16:02:07Z</time>
      </trkpt>
      <trkpt lat="43.25734" lon="1.19637">
        <ele>234.98</ele>
        <time>2018-05-20T16:02:23Z</time>
      </trkpt>
      <trkpt lat="43.25741" lon="1.19644">
        <ele>234.9</ele>
        <time>2018-05-20T16:02:34Z</time>
      </trkpt>
    </trkseg>
  </trk>
</gpx>